﻿<?xml version="1.0" encoding="utf-8" standalone="yes"?>
<gpx version="1.0" creator="CanWay - http://www.canwaygps.com" xmlns:xsi="http://www.w3.org/2001/XMLSchema-instance" xmlns="http://www.topografix.com/GPX/1/0" xsi:schemaLocation="http://www.topografix.com/GPX/1/0 http://www.topografix.com/GPX/1/0/gpx.xsd">
<time>2026-03-27T15:43:30Z</time>
<bounds minlat="35.848151" minlon="139.382773" maxlat="35.962518" maxlon="139.536876" />
<trk>
<name>2026-03-27 09-03</name>
<trkseg>
<trkpt lat="35.852552" lon="139.383296">
<ele>41.2</ele>
<time>2026-03-27T00:03:41Z</time>
<speed>0.0</speed>
</trkpt>
<trkpt lat="35.852514" lon="139.383187">
<ele>44.0</ele>
<time>2026-03-27T00:10:49Z</time>
<speed>1.9</speed>
</trkpt>
<trkpt lat="35.852510" lon="139.383167">
<ele>44.0</ele>
<time>2026-03-27T00:10:50Z</time>
<speed>2.0</speed>
</trkpt>
<trkpt lat="35.852505" lon="139.383146">
<ele>44.0</ele>
<time>2026-03-27T00:10:51Z</time>
<speed>2.9</speed>
</trkpt>
<trkpt lat="35.852488" lon="139.382957">
<ele>44.2</ele>
<time>2026-03-27T00:10:57Z</time>
<speed>2.4</speed>
</trkpt>
<trkpt lat="35.852473" lon="139.382800">
<ele>44.6</ele>
<time>2026-03-27T00:11:03Z</time>
<speed>0.3</speed>
</trkpt>
<trkpt lat="35.852444" lon="139.382773">
<ele>45.0</ele>
<time>2026-03-27T00:11:19Z</time>
<speed>2.9</speed>
</trkpt>
<trkpt lat="35.852322" lon="139.382828">
<ele>45.2</ele>
<time>2026-03-27T00:11:24Z</time>
<speed>4.3</speed>
</trkpt>
<trkpt lat="35.852134" lon="139.382887">
<ele>45.2</ele>
<time>2026-03-27T00:11:29Z</time>
<speed>4.4</speed>
</trkpt>
<trkpt lat="35.852095" lon="139.382898">
<ele>45.4</ele>
<time>2026-03-27T00:11:30Z</time>
<speed>4.5</speed>
</trkpt>
<trkpt lat="35.851820" lon="139.382991">
<ele>46.2</ele>
<time>2026-03-27T00:11:37Z</time>
<speed>4.0</speed>
</trkpt>
<trkpt lat="35.851785" lon="139.383002">
<ele>46.2</ele>
<time>2026-03-27T00:11:38Z</time>
<speed>4.2</speed>
</trkpt>
<trkpt lat="35.851643" lon="139.383061">
<ele>46.6</ele>
<time>2026-03-27T00:11:42Z</time>
<speed>4.0</speed>
</trkpt>
<trkpt lat="35.851577" lon="139.383095">
<ele>46.8</ele>
<time>2026-03-27T00:11:44Z</time>
<speed>0.1</speed>
</trkpt>
<trkpt lat="35.851509" lon="139.383113">
<ele>47.4</ele>
<time>2026-03-27T00:12:43Z</time>
<speed>2.3</speed>
</trkpt>
<trkpt lat="35.851469" lon="139.383127">
<ele>47.4</ele>
<time>2026-03-27T00:12:45Z</time>
<speed>3.9</speed>
</trkpt>
<trkpt lat="35.851296" lon="139.383173">
<ele>47.4</ele>
<time>2026-03-27T00:12:50Z</time>
<speed>4.5</speed>
</trkpt>
<trkpt lat="35.850985" lon="139.383279">
<ele>47.6</ele>
<time>2026-03-27T00:12:58Z</time>
<speed>4.8</speed>
</trkpt>
<trkpt lat="35.850653" lon="139.383399">
<ele>47.6</ele>
<time>2026-03-27T00:13:06Z</time>
<speed>5.6</speed>
</trkpt>
<trkpt lat="35.850216" lon="139.383562">
<ele>47.0</ele>
<time>2026-03-27T00:13:15Z</time>
<speed>6.0</speed>
</trkpt>
<trkpt lat="35.850009" lon="139.383640">
<ele>46.4</ele>
<time>2026-03-27T00:13:19Z</time>
<speed>5.1</speed>
</trkpt>
<trkpt lat="35.849879" lon="139.383695">
<ele>46.2</ele>
<time>2026-03-27T00:13:22Z</time>
<speed>3.1</speed>
</trkpt>
<trkpt lat="35.849804" lon="139.383738">
<ele>45.8</ele>
<time>2026-03-27T00:13:25Z</time>
<speed>2.8</speed>
</trkpt>
<trkpt lat="35.849795" lon="139.383767">
<ele>45.8</ele>
<time>2026-03-27T00:13:26Z</time>
<speed>2.9</speed>
</trkpt>
<trkpt lat="35.849859" lon="139.383821">
<ele>45.4</ele>
<time>2026-03-27T00:13:29Z</time>
<speed>4.3</speed>
</trkpt>
<trkpt lat="35.850008" lon="139.383776">
<ele>45.2</ele>
<time>2026-03-27T00:13:33Z</time>
<speed>5.0</speed>
</trkpt>
<trkpt lat="35.850052" lon="139.383763">
<ele>45.2</ele>
<time>2026-03-27T00:13:34Z</time>
<speed>5.6</speed>
</trkpt>
<trkpt lat="35.850298" lon="139.383701">
<ele>44.6</ele>
<time>2026-03-27T00:13:39Z</time>
<speed>5.1</speed>
</trkpt>
<trkpt lat="35.850341" lon="139.383722">
<ele>44.4</ele>
<time>2026-03-27T00:13:40Z</time>
<speed>4.8</speed>
</trkpt>
<trkpt lat="35.850396" lon="139.383867">
<ele>44.0</ele>
<time>2026-03-27T00:13:43Z</time>
<speed>5.1</speed>
</trkpt>
<trkpt lat="35.850475" lon="139.384005">
<ele>43.4</ele>
<time>2026-03-27T00:13:46Z</time>
<speed>5.4</speed>
</trkpt>
<trkpt lat="35.850504" lon="139.384053">
<ele>43.2</ele>
<time>2026-03-27T00:13:47Z</time>
<speed>5.6</speed>
</trkpt>
<trkpt lat="35.850759" lon="139.384436">
<ele>42.8</ele>
<time>2026-03-27T00:13:55Z</time>
<speed>5.8</speed>
</trkpt>
<trkpt lat="35.850852" lon="139.384591">
<ele>42.8</ele>
<time>2026-03-27T00:13:58Z</time>
<speed>6.0</speed>
</trkpt>
<trkpt lat="35.850930" lon="139.384767">
<ele>42.8</ele>
<time>2026-03-27T00:14:01Z</time>
<speed>5.6</speed>
</trkpt>
<trkpt lat="35.851076" lon="139.385162">
<ele>42.6</ele>
<time>2026-03-27T00:14:08Z</time>
<speed>5.4</speed>
</trkpt>
<trkpt lat="35.851204" lon="139.385483">
<ele>42.6</ele>
<time>2026-03-27T00:14:14Z</time>
<speed>5.6</speed>
</trkpt>
<trkpt lat="35.851231" lon="139.385536">
<ele>42.6</ele>
<time>2026-03-27T00:14:15Z</time>
<speed>5.5</speed>
</trkpt>
<trkpt lat="35.851303" lon="139.385695">
<ele>42.4</ele>
<time>2026-03-27T00:14:18Z</time>
<speed>5.0</speed>
</trkpt>
<trkpt lat="35.851374" lon="139.385899">
<ele>42.2</ele>
<time>2026-03-27T00:14:22Z</time>
<speed>5.3</speed>
</trkpt>
<trkpt lat="35.851514" lon="139.386276">
<ele>41.8</ele>
<time>2026-03-27T00:14:29Z</time>
<speed>5.4</speed>
</trkpt>
<trkpt lat="35.851638" lon="139.386669">
<ele>41.6</ele>
<time>2026-03-27T00:14:36Z</time>
<speed>5.7</speed>
</trkpt>
<trkpt lat="35.851661" lon="139.386726">
<ele>41.6</ele>
<time>2026-03-27T00:14:37Z</time>
<speed>5.0</speed>
</trkpt>
<trkpt lat="35.851678" lon="139.386892">
<ele>41.4</ele>
<time>2026-03-27T00:14:40Z</time>
<speed>4.3</speed>
</trkpt>
<trkpt lat="35.851611" lon="139.387115">
<ele>41.4</ele>
<time>2026-03-27T00:14:45Z</time>
<speed>4.7</speed>
</trkpt>
<trkpt lat="35.851532" lon="139.387298">
<ele>41.4</ele>
<time>2026-03-27T00:14:49Z</time>
<speed>4.5</speed>
</trkpt>
<trkpt lat="35.851499" lon="139.387389">
<ele>41.4</ele>
<time>2026-03-27T00:14:51Z</time>
<speed>3.4</speed>
</trkpt>
<trkpt lat="35.851532" lon="139.387493">
<ele>41.4</ele>
<time>2026-03-27T00:14:54Z</time>
<speed>3.3</speed>
</trkpt>
<trkpt lat="35.851579" lon="139.387539">
<ele>41.6</ele>
<time>2026-03-27T00:14:56Z</time>
<speed>4.1</speed>
</trkpt>
<trkpt lat="35.851709" lon="139.387629">
<ele>41.6</ele>
<time>2026-03-27T00:15:00Z</time>
<speed>5.2</speed>
</trkpt>
<trkpt lat="35.851956" lon="139.387793">
<ele>41.6</ele>
<time>2026-03-27T00:15:06Z</time>
<speed>5.7</speed>
</trkpt>
<trkpt lat="35.851994" lon="139.387836">
<ele>41.4</ele>
<time>2026-03-27T00:15:07Z</time>
<speed>5.9</speed>
</trkpt>
<trkpt lat="35.852091" lon="139.387992">
<ele>41.4</ele>
<time>2026-03-27T00:15:10Z</time>
<speed>5.7</speed>
</trkpt>
<trkpt lat="35.852263" lon="139.388383">
<ele>41.4</ele>
<time>2026-03-27T00:15:17Z</time>
<speed>4.7</speed>
</trkpt>
<trkpt lat="35.852325" lon="139.388689">
<ele>41.4</ele>
<time>2026-03-27T00:15:23Z</time>
<speed>4.3</speed>
</trkpt>
<trkpt lat="35.852314" lon="139.388735">
<ele>41.4</ele>
<time>2026-03-27T00:15:24Z</time>
<speed>4.7</speed>
</trkpt>
<trkpt lat="35.852261" lon="139.388816">
<ele>41.2</ele>
<time>2026-03-27T00:15:26Z</time>
<speed>5.3</speed>
</trkpt>
<trkpt lat="35.852136" lon="139.388903">
<ele>41.2</ele>
<time>2026-03-27T00:15:29Z</time>
<speed>5.6</speed>
</trkpt>
<trkpt lat="35.852049" lon="139.388967">
<ele>41.2</ele>
<time>2026-03-27T00:15:31Z</time>
<speed>4.9</speed>
</trkpt>
<trkpt lat="35.851891" lon="139.389061">
<ele>41.2</ele>
<time>2026-03-27T00:15:35Z</time>
<speed>4.2</speed>
</trkpt>
<trkpt lat="35.851670" lon="139.389115">
<ele>41.2</ele>
<time>2026-03-27T00:15:41Z</time>
<speed>4.5</speed>
</trkpt>
<trkpt lat="35.851391" lon="139.389051">
<ele>41.4</ele>
<time>2026-03-27T00:15:48Z</time>
<speed>4.7</speed>
</trkpt>
<trkpt lat="35.851349" lon="139.389060">
<ele>41.6</ele>
<time>2026-03-27T00:15:49Z</time>
<speed>4.2</speed>
</trkpt>
<trkpt lat="35.851285" lon="139.389108">
<ele>41.6</ele>
<time>2026-03-27T00:15:51Z</time>
<speed>3.7</speed>
</trkpt>
<trkpt lat="35.851184" lon="139.389109">
<ele>41.8</ele>
<time>2026-03-27T00:15:54Z</time>
<speed>4.4</speed>
</trkpt>
<trkpt lat="35.851066" lon="139.389108">
<ele>41.8</ele>
<time>2026-03-27T00:15:57Z</time>
<speed>4.7</speed>
</trkpt>
<trkpt lat="35.850939" lon="139.389111">
<ele>42.4</ele>
<time>2026-03-27T00:16:00Z</time>
<speed>5.0</speed>
</trkpt>
<trkpt lat="35.850534" lon="139.389099">
<ele>43.2</ele>
<time>2026-03-27T00:16:09Z</time>
<speed>5.2</speed>
</trkpt>
<trkpt lat="35.850441" lon="139.389093">
<ele>43.4</ele>
<time>2026-03-27T00:16:11Z</time>
<speed>4.7</speed>
</trkpt>
<trkpt lat="35.850271" lon="139.389077">
<ele>43.6</ele>
<time>2026-03-27T00:16:15Z</time>
<speed>4.9</speed>
</trkpt>
<trkpt lat="35.849961" lon="139.389052">
<ele>43.6</ele>
<time>2026-03-27T00:16:22Z</time>
<speed>4.7</speed>
</trkpt>
<trkpt lat="35.849621" lon="139.389048">
<ele>44.0</ele>
<time>2026-03-27T00:16:30Z</time>
<speed>4.7</speed>
</trkpt>
<trkpt lat="35.849410" lon="139.389042">
<ele>44.0</ele>
<time>2026-03-27T00:16:35Z</time>
<speed>4.5</speed>
</trkpt>
<trkpt lat="35.849167" lon="139.389042">
<ele>44.2</ele>
<time>2026-03-27T00:16:41Z</time>
<speed>4.5</speed>
</trkpt>
<trkpt lat="35.848922" lon="139.389041">
<ele>44.4</ele>
<time>2026-03-27T00:16:47Z</time>
<speed>4.7</speed>
</trkpt>
<trkpt lat="35.848880" lon="139.389038">
<ele>44.4</ele>
<time>2026-03-27T00:16:48Z</time>
<speed>5.1</speed>
</trkpt>
<trkpt lat="35.848605" lon="139.389039">
<ele>45.0</ele>
<time>2026-03-27T00:16:54Z</time>
<speed>4.5</speed>
</trkpt>
<trkpt lat="35.848365" lon="139.389016">
<ele>45.4</ele>
<time>2026-03-27T00:17:00Z</time>
<speed>3.8</speed>
</trkpt>
<trkpt lat="35.848262" lon="139.389003">
<ele>45.4</ele>
<time>2026-03-27T00:17:03Z</time>
<speed>2.7</speed>
</trkpt>
<trkpt lat="35.848191" lon="139.388990">
<ele>45.6</ele>
<time>2026-03-27T00:17:06Z</time>
<speed>1.8</speed>
</trkpt>
<trkpt lat="35.848176" lon="139.388997">
<ele>45.6</ele>
<time>2026-03-27T00:17:07Z</time>
<speed>2.1</speed>
</trkpt>
<trkpt lat="35.848171" lon="139.389043">
<ele>45.8</ele>
<time>2026-03-27T00:17:09Z</time>
<speed>2.8</speed>
</trkpt>
<trkpt lat="35.848169" lon="139.389137">
<ele>45.8</ele>
<time>2026-03-27T00:17:12Z</time>
<speed>3.2</speed>
</trkpt>
<trkpt lat="35.848157" lon="139.389242">
<ele>46.2</ele>
<time>2026-03-27T00:17:15Z</time>
<speed>2.9</speed>
</trkpt>
<trkpt lat="35.848151" lon="139.389273">
<ele>46.4</ele>
<time>2026-03-27T00:17:16Z</time>
<speed>1.9</speed>
</trkpt>
<trkpt lat="35.848152" lon="139.389315">
<ele>46.8</ele>
<time>2026-03-27T00:17:18Z</time>
<speed>1.7</speed>
</trkpt>
<trkpt lat="35.848165" lon="139.389325">
<ele>46.8</ele>
<time>2026-03-27T00:17:19Z</time>
<speed>3.3</speed>
</trkpt>
<trkpt lat="35.848281" lon="139.389353">
<ele>46.8</ele>
<time>2026-03-27T00:17:23Z</time>
<speed>4.9</speed>
</trkpt>
<trkpt lat="35.848500" lon="139.389375">
<ele>46.8</ele>
<time>2026-03-27T00:17:28Z</time>
<speed>4.5</speed>
</trkpt>
<trkpt lat="35.848784" lon="139.389373">
<ele>45.8</ele>
<time>2026-03-27T00:17:35Z</time>
<speed>5.0</speed>
</trkpt>
<trkpt lat="35.849144" lon="139.389385">
<ele>45.8</ele>
<time>2026-03-27T00:17:43Z</time>
<speed>5.9</speed>
</trkpt>
<trkpt lat="35.849516" lon="139.389385">
<ele>45.6</ele>
<time>2026-03-27T00:17:50Z</time>
<speed>5.2</speed>
</trkpt>
<trkpt lat="35.849563" lon="139.389386">
<ele>45.4</ele>
<time>2026-03-27T00:17:51Z</time>
<speed>5.0</speed>
</trkpt>
<trkpt lat="35.849608" lon="139.389387">
<ele>45.4</ele>
<time>2026-03-27T00:17:52Z</time>
<speed>4.9</speed>
</trkpt>
<trkpt lat="35.849830" lon="139.389392">
<ele>44.4</ele>
<time>2026-03-27T00:17:57Z</time>
<speed>4.6</speed>
</trkpt>
<trkpt lat="35.849913" lon="139.389398">
<ele>44.2</ele>
<time>2026-03-27T00:17:59Z</time>
<speed>2.9</speed>
</trkpt>
<trkpt lat="35.850016" lon="139.389391">
<ele>44.2</ele>
<time>2026-03-27T00:18:03Z</time>
<speed>2.1</speed>
</trkpt>
<trkpt lat="35.850130" lon="139.389401">
<ele>44.0</ele>
<time>2026-03-27T00:18:09Z</time>
<speed>0.6</speed>
</trkpt>
<trkpt lat="35.850173" lon="139.389391">
<ele>43.8</ele>
<time>2026-03-27T00:18:17Z</time>
<speed>1.8</speed>
</trkpt>
<trkpt lat="35.850189" lon="139.389393">
<ele>43.8</ele>
<time>2026-03-27T00:18:18Z</time>
<speed>2.7</speed>
</trkpt>
<trkpt lat="35.850308" lon="139.389411">
<ele>43.8</ele>
<time>2026-03-27T00:18:23Z</time>
<speed>2.9</speed>
</trkpt>
<trkpt lat="35.850334" lon="139.389411">
<ele>43.8</ele>
<time>2026-03-27T00:18:24Z</time>
<speed>3.1</speed>
</trkpt>
<trkpt lat="35.850531" lon="139.389424">
<ele>43.8</ele>
<time>2026-03-27T00:18:31Z</time>
<speed>3.9</speed>
</trkpt>
<trkpt lat="35.850815" lon="139.389434">
<ele>43.8</ele>
<time>2026-03-27T00:18:39Z</time>
<speed>4.0</speed>
</trkpt>
<trkpt lat="35.851064" lon="139.389443">
<ele>43.6</ele>
<time>2026-03-27T00:18:46Z</time>
<speed>4.2</speed>
</trkpt>
<trkpt lat="35.851403" lon="139.389475">
<ele>43.4</ele>
<time>2026-03-27T00:18:55Z</time>
<speed>4.6</speed>
</trkpt>
<trkpt lat="35.851484" lon="139.389490">
<ele>43.4</ele>
<time>2026-03-27T00:18:57Z</time>
<speed>4.3</speed>
</trkpt>
<trkpt lat="35.851787" lon="139.389575">
<ele>43.0</ele>
<time>2026-03-27T00:19:05Z</time>
<speed>4.4</speed>
</trkpt>
<trkpt lat="35.852048" lon="139.389683">
<ele>42.8</ele>
<time>2026-03-27T00:19:12Z</time>
<speed>4.1</speed>
</trkpt>
<trkpt lat="35.852212" lon="139.389784">
<ele>42.6</ele>
<time>2026-03-27T00:19:17Z</time>
<speed>4.4</speed>
</trkpt>
<trkpt lat="35.852460" lon="139.389933">
<ele>42.6</ele>
<time>2026-03-27T00:19:24Z</time>
<speed>4.1</speed>
</trkpt>
<trkpt lat="35.852650" lon="139.390071">
<ele>42.4</ele>
<time>2026-03-27T00:19:30Z</time>
<speed>4.0</speed>
</trkpt>
<trkpt lat="35.852855" lon="139.390246">
<ele>42.2</ele>
<time>2026-03-27T00:19:37Z</time>
<speed>4.3</speed>
</trkpt>
<trkpt lat="35.853003" lon="139.390468">
<ele>42.2</ele>
<time>2026-03-27T00:19:43Z</time>
<speed>4.6</speed>
</trkpt>
<trkpt lat="35.853157" lon="139.390830">
<ele>41.6</ele>
<time>2026-03-27T00:19:51Z</time>
<speed>5.0</speed>
</trkpt>
<trkpt lat="35.853215" lon="139.390982">
<ele>41.2</ele>
<time>2026-03-27T00:19:54Z</time>
<speed>4.5</speed>
</trkpt>
<trkpt lat="35.853306" lon="139.391146">
<ele>40.4</ele>
<time>2026-03-27T00:19:58Z</time>
<speed>2.3</speed>
</trkpt>
<trkpt lat="35.853332" lon="139.391186">
<ele>40.2</ele>
<time>2026-03-27T00:20:00Z</time>
<speed>0.3</speed>
</trkpt>
<trkpt lat="35.853363" lon="139.391241">
<ele>39.4</ele>
<time>2026-03-27T00:20:21Z</time>
<speed>2.7</speed>
</trkpt>
<trkpt lat="35.853382" lon="139.391260">
<ele>39.4</ele>
<time>2026-03-27T00:20:22Z</time>
<speed>4.0</speed>
</trkpt>
<trkpt lat="35.853417" lon="139.391269">
<ele>39.4</ele>
<time>2026-03-27T00:20:23Z</time>
<speed>3.8</speed>
</trkpt>
<trkpt lat="35.853508" lon="139.391211">
<ele>39.2</ele>
<time>2026-03-27T00:20:26Z</time>
<speed>4.1</speed>
</trkpt>
<trkpt lat="35.853609" lon="139.391156">
<ele>39.2</ele>
<time>2026-03-27T00:20:29Z</time>
<speed>3.6</speed>
</trkpt>
<trkpt lat="35.853707" lon="139.391156">
<ele>38.2</ele>
<time>2026-03-27T00:20:32Z</time>
<speed>4.1</speed>
</trkpt>
<trkpt lat="35.853737" lon="139.391182">
<ele>38.0</ele>
<time>2026-03-27T00:20:33Z</time>
<speed>4.6</speed>
</trkpt>
<trkpt lat="35.853789" lon="139.391261">
<ele>37.8</ele>
<time>2026-03-27T00:20:35Z</time>
<speed>4.7</speed>
</trkpt>
<trkpt lat="35.853812" lon="139.391305">
<ele>37.8</ele>
<time>2026-03-27T00:20:36Z</time>
<speed>5.0</speed>
</trkpt>
<trkpt lat="35.853908" lon="139.391493">
<ele>37.6</ele>
<time>2026-03-27T00:20:40Z</time>
<speed>5.1</speed>
</trkpt>
<trkpt lat="35.854011" lon="139.391679">
<ele>37.6</ele>
<time>2026-03-27T00:20:44Z</time>
<speed>5.0</speed>
</trkpt>
<trkpt lat="35.854190" lon="139.392003">
<ele>37.4</ele>
<time>2026-03-27T00:20:51Z</time>
<speed>5.7</speed>
</trkpt>
<trkpt lat="35.854335" lon="139.392265">
<ele>37.2</ele>
<time>2026-03-27T00:20:56Z</time>
<speed>5.2</speed>
</trkpt>
<trkpt lat="35.854592" lon="139.392745">
<ele>37.0</ele>
<time>2026-03-27T00:21:06Z</time>
<speed>5.8</speed>
</trkpt>
<trkpt lat="35.854778" lon="139.393133">
<ele>37.0</ele>
<time>2026-03-27T00:21:13Z</time>
<speed>5.6</speed>
</trkpt>
<trkpt lat="35.854802" lon="139.393188">
<ele>37.0</ele>
<time>2026-03-27T00:21:14Z</time>
<speed>5.6</speed>
</trkpt>
<trkpt lat="35.854868" lon="139.393356">
<ele>36.8</ele>
<time>2026-03-27T00:21:17Z</time>
<speed>6.0</speed>
</trkpt>
<trkpt lat="35.854965" lon="139.393595">
<ele>36.8</ele>
<time>2026-03-27T00:21:21Z</time>
<speed>6.3</speed>
</trkpt>
<trkpt lat="35.855157" lon="139.394098">
<ele>36.6</ele>
<time>2026-03-27T00:21:29Z</time>
<speed>6.2</speed>
</trkpt>
<trkpt lat="35.855303" lon="139.394616">
<ele>36.4</ele>
<time>2026-03-27T00:21:37Z</time>
<speed>6.1</speed>
</trkpt>
<trkpt lat="35.855454" lon="139.395272">
<ele>36.2</ele>
<time>2026-03-27T00:21:47Z</time>
<speed>5.4</speed>
</trkpt>
<trkpt lat="35.855505" lon="139.395689">
<ele>36.0</ele>
<time>2026-03-27T00:21:54Z</time>
<speed>5.4</speed>
</trkpt>
<trkpt lat="35.855531" lon="139.395805">
<ele>36.0</ele>
<time>2026-03-27T00:21:56Z</time>
<speed>5.7</speed>
</trkpt>
<trkpt lat="35.855612" lon="139.396036">
<ele>36.0</ele>
<time>2026-03-27T00:22:00Z</time>
<speed>5.6</speed>
</trkpt>
<trkpt lat="35.855774" lon="139.396490">
<ele>36.0</ele>
<time>2026-03-27T00:22:08Z</time>
<speed>5.6</speed>
</trkpt>
<trkpt lat="35.855811" lon="139.396919">
<ele>36.0</ele>
<time>2026-03-27T00:22:15Z</time>
<speed>4.7</speed>
</trkpt>
<trkpt lat="35.855841" lon="139.397284">
<ele>36.2</ele>
<time>2026-03-27T00:22:22Z</time>
<speed>4.8</speed>
</trkpt>
<trkpt lat="35.855842" lon="139.397443">
<ele>36.2</ele>
<time>2026-03-27T00:22:25Z</time>
<speed>5.4</speed>
</trkpt>
<trkpt lat="35.855794" lon="139.397546">
<ele>36.4</ele>
<time>2026-03-27T00:22:27Z</time>
<speed>4.8</speed>
</trkpt>
<trkpt lat="35.855741" lon="139.397630">
<ele>36.4</ele>
<time>2026-03-27T00:22:29Z</time>
<speed>4.3</speed>
</trkpt>
<trkpt lat="35.855651" lon="139.397786">
<ele>36.4</ele>
<time>2026-03-27T00:22:33Z</time>
<speed>3.0</speed>
</trkpt>
<trkpt lat="35.855590" lon="139.397895">
<ele>36.2</ele>
<time>2026-03-27T00:22:37Z</time>
<speed>4.5</speed>
</trkpt>
<trkpt lat="35.855602" lon="139.398094">
<ele>36.2</ele>
<time>2026-03-27T00:22:41Z</time>
<speed>5.6</speed>
</trkpt>
<trkpt lat="35.855632" lon="139.398463">
<ele>36.2</ele>
<time>2026-03-27T00:22:47Z</time>
<speed>6.2</speed>
</trkpt>
<trkpt lat="35.855647" lon="139.398948">
<ele>36.2</ele>
<time>2026-03-27T00:22:54Z</time>
<speed>6.4</speed>
</trkpt>
<trkpt lat="35.855714" lon="139.399368">
<ele>35.8</ele>
<time>2026-03-27T00:23:00Z</time>
<speed>6.0</speed>
</trkpt>
<trkpt lat="35.855725" lon="139.399433">
<ele>35.6</ele>
<time>2026-03-27T00:23:01Z</time>
<speed>6.0</speed>
</trkpt>
<trkpt lat="35.855742" lon="139.399496">
<ele>35.2</ele>
<time>2026-03-27T00:23:02Z</time>
<speed>5.8</speed>
</trkpt>
<trkpt lat="35.855764" lon="139.399621">
<ele>34.8</ele>
<time>2026-03-27T00:23:04Z</time>
<speed>6.0</speed>
</trkpt>
<trkpt lat="35.855793" lon="139.399750">
<ele>34.6</ele>
<time>2026-03-27T00:23:06Z</time>
<speed>6.5</speed>
</trkpt>
<trkpt lat="35.855925" lon="139.399894">
<ele>34.6</ele>
<time>2026-03-27T00:23:09Z</time>
<speed>6.4</speed>
</trkpt>
<trkpt lat="35.856065" lon="139.400021">
<ele>34.6</ele>
<time>2026-03-27T00:23:12Z</time>
<speed>6.4</speed>
</trkpt>
<trkpt lat="35.856177" lon="139.400182">
<ele>34.4</ele>
<time>2026-03-27T00:23:15Z</time>
<speed>6.6</speed>
</trkpt>
<trkpt lat="35.856224" lon="139.400317">
<ele>34.4</ele>
<time>2026-03-27T00:23:17Z</time>
<speed>6.6</speed>
</trkpt>
<trkpt lat="35.856336" lon="139.400574">
<ele>34.2</ele>
<time>2026-03-27T00:23:21Z</time>
<speed>6.8</speed>
</trkpt>
<trkpt lat="35.856644" lon="139.401132">
<ele>33.8</ele>
<time>2026-03-27T00:23:30Z</time>
<speed>6.9</speed>
</trkpt>
<trkpt lat="35.856682" lon="139.401192">
<ele>33.8</ele>
<time>2026-03-27T00:23:31Z</time>
<speed>6.9</speed>
</trkpt>
<trkpt lat="35.857054" lon="139.401707">
<ele>33.6</ele>
<time>2026-03-27T00:23:40Z</time>
<speed>6.6</speed>
</trkpt>
<trkpt lat="35.857096" lon="139.401759">
<ele>33.6</ele>
<time>2026-03-27T00:23:41Z</time>
<speed>6.5</speed>
</trkpt>
<trkpt lat="35.857428" lon="139.402163">
<ele>33.4</ele>
<time>2026-03-27T00:23:49Z</time>
<speed>6.0</speed>
</trkpt>
<trkpt lat="35.857665" lon="139.402439">
<ele>33.4</ele>
<time>2026-03-27T00:23:55Z</time>
<speed>6.2</speed>
</trkpt>
<trkpt lat="35.858049" lon="139.402835">
<ele>33.4</ele>
<time>2026-03-27T00:24:04Z</time>
<speed>6.2</speed>
</trkpt>
<trkpt lat="35.858422" lon="139.403248">
<ele>33.2</ele>
<time>2026-03-27T00:24:13Z</time>
<speed>5.7</speed>
</trkpt>
<trkpt lat="35.858466" lon="139.403281">
<ele>33.2</ele>
<time>2026-03-27T00:24:14Z</time>
<speed>5.8</speed>
</trkpt>
<trkpt lat="35.858597" lon="139.403385">
<ele>33.0</ele>
<time>2026-03-27T00:24:17Z</time>
<speed>6.3</speed>
</trkpt>
<trkpt lat="35.858718" lon="139.403532">
<ele>32.8</ele>
<time>2026-03-27T00:24:20Z</time>
<speed>6.6</speed>
</trkpt>
<trkpt lat="35.858762" lon="139.403581">
<ele>32.8</ele>
<time>2026-03-27T00:24:21Z</time>
<speed>6.6</speed>
</trkpt>
<trkpt lat="35.858808" lon="139.403627">
<ele>32.8</ele>
<time>2026-03-27T00:24:22Z</time>
<speed>6.6</speed>
</trkpt>
<trkpt lat="35.858994" lon="139.403808">
<ele>32.8</ele>
<time>2026-03-27T00:24:26Z</time>
<speed>6.7</speed>
</trkpt>
<trkpt lat="35.859278" lon="139.404087">
<ele>32.8</ele>
<time>2026-03-27T00:24:32Z</time>
<speed>6.7</speed>
</trkpt>
<trkpt lat="35.859369" lon="139.404185">
<ele>32.8</ele>
<time>2026-03-27T00:24:34Z</time>
<speed>6.5</speed>
</trkpt>
<trkpt lat="35.859567" lon="139.404342">
<ele>32.8</ele>
<time>2026-03-27T00:24:38Z</time>
<speed>6.7</speed>
</trkpt>
<trkpt lat="35.859622" lon="139.404371">
<ele>32.8</ele>
<time>2026-03-27T00:24:39Z</time>
<speed>6.5</speed>
</trkpt>
<trkpt lat="35.859782" lon="139.404458">
<ele>32.8</ele>
<time>2026-03-27T00:24:42Z</time>
<speed>6.4</speed>
</trkpt>
<trkpt lat="35.859831" lon="139.404495">
<ele>32.8</ele>
<time>2026-03-27T00:24:43Z</time>
<speed>6.2</speed>
</trkpt>
<trkpt lat="35.860162" lon="139.404751">
<ele>32.4</ele>
<time>2026-03-27T00:24:50Z</time>
<speed>6.0</speed>
</trkpt>
<trkpt lat="35.860445" lon="139.404949">
<ele>32.2</ele>
<time>2026-03-27T00:24:56Z</time>
<speed>6.2</speed>
</trkpt>
<trkpt lat="35.860751" lon="139.405110">
<ele>32.0</ele>
<time>2026-03-27T00:25:02Z</time>
<speed>6.0</speed>
</trkpt>
<trkpt lat="35.860853" lon="139.405152">
<ele>31.8</ele>
<time>2026-03-27T00:25:04Z</time>
<speed>6.0</speed>
</trkpt>
<trkpt lat="35.860997" lon="139.405242">
<ele>31.6</ele>
<time>2026-03-27T00:25:07Z</time>
<speed>6.1</speed>
</trkpt>
<trkpt lat="35.861275" lon="139.405464">
<ele>31.4</ele>
<time>2026-03-27T00:25:13Z</time>
<speed>6.0</speed>
</trkpt>
<trkpt lat="35.861376" lon="139.405508">
<ele>31.4</ele>
<time>2026-03-27T00:25:15Z</time>
<speed>6.1</speed>
</trkpt>
<trkpt lat="35.861586" lon="139.405590">
<ele>31.4</ele>
<time>2026-03-27T00:25:19Z</time>
<speed>6.5</speed>
</trkpt>
<trkpt lat="35.861687" lon="139.405663">
<ele>31.6</ele>
<time>2026-03-27T00:25:21Z</time>
<speed>6.2</speed>
</trkpt>
<trkpt lat="35.862030" lon="139.405885">
<ele>31.8</ele>
<time>2026-03-27T00:25:28Z</time>
<speed>6.4</speed>
</trkpt>
<trkpt lat="35.862406" lon="139.406061">
<ele>31.6</ele>
<time>2026-03-27T00:25:35Z</time>
<speed>5.6</speed>
</trkpt>
<trkpt lat="35.862504" lon="139.406089">
<ele>31.6</ele>
<time>2026-03-27T00:25:37Z</time>
<speed>6.0</speed>
</trkpt>
<trkpt lat="35.862664" lon="139.406111">
<ele>31.4</ele>
<time>2026-03-27T00:25:40Z</time>
<speed>6.1</speed>
</trkpt>
<trkpt lat="35.862881" lon="139.406144">
<ele>31.0</ele>
<time>2026-03-27T00:25:44Z</time>
<speed>6.3</speed>
</trkpt>
<trkpt lat="35.862933" lon="139.406172">
<ele>31.0</ele>
<time>2026-03-27T00:25:45Z</time>
<speed>6.3</speed>
</trkpt>
<trkpt lat="35.863107" lon="139.406349">
<ele>31.0</ele>
<time>2026-03-27T00:25:49Z</time>
<speed>6.5</speed>
</trkpt>
<trkpt lat="35.863178" lon="139.406463">
<ele>31.0</ele>
<time>2026-03-27T00:25:51Z</time>
<speed>6.6</speed>
</trkpt>
<trkpt lat="35.863220" lon="139.406514">
<ele>31.0</ele>
<time>2026-03-27T00:25:52Z</time>
<speed>6.7</speed>
</trkpt>
<trkpt lat="35.863320" lon="139.406598">
<ele>31.0</ele>
<time>2026-03-27T00:25:54Z</time>
<speed>6.5</speed>
</trkpt>
<trkpt lat="35.863427" lon="139.406658">
<ele>30.8</ele>
<time>2026-03-27T00:25:56Z</time>
<speed>6.6</speed>
</trkpt>
<trkpt lat="35.863482" lon="139.406685">
<ele>30.8</ele>
<time>2026-03-27T00:25:57Z</time>
<speed>6.2</speed>
</trkpt>
<trkpt lat="35.863637" lon="139.406765">
<ele>30.6</ele>
<time>2026-03-27T00:26:00Z</time>
<speed>5.5</speed>
</trkpt>
<trkpt lat="35.863914" lon="139.406901">
<ele>30.6</ele>
<time>2026-03-27T00:26:06Z</time>
<speed>4.3</speed>
</trkpt>
<trkpt lat="35.864093" lon="139.406993">
<ele>30.6</ele>
<time>2026-03-27T00:26:11Z</time>
<speed>5.1</speed>
</trkpt>
<trkpt lat="35.864133" lon="139.406966">
<ele>30.6</ele>
<time>2026-03-27T00:26:12Z</time>
<speed>5.4</speed>
</trkpt>
<trkpt lat="35.864228" lon="139.406946">
<ele>30.6</ele>
<time>2026-03-27T00:26:14Z</time>
<speed>6.1</speed>
</trkpt>
<trkpt lat="35.864497" lon="139.406998">
<ele>30.6</ele>
<time>2026-03-27T00:26:19Z</time>
<speed>6.2</speed>
</trkpt>
<trkpt lat="35.864932" lon="139.407104">
<ele>30.0</ele>
<time>2026-03-27T00:26:27Z</time>
<speed>6.1</speed>
</trkpt>
<trkpt lat="35.865415" lon="139.407252">
<ele>29.8</ele>
<time>2026-03-27T00:26:36Z</time>
<speed>6.1</speed>
</trkpt>
<trkpt lat="35.865765" lon="139.407442">
<ele>29.8</ele>
<time>2026-03-27T00:26:43Z</time>
<speed>6.2</speed>
</trkpt>
<trkpt lat="35.866276" lon="139.407710">
<ele>30.2</ele>
<time>2026-03-27T00:26:53Z</time>
<speed>6.1</speed>
</trkpt>
<trkpt lat="35.866637" lon="139.407873">
<ele>30.0</ele>
<time>2026-03-27T00:27:00Z</time>
<speed>6.1</speed>
</trkpt>
<trkpt lat="35.867046" lon="139.408074">
<ele>29.8</ele>
<time>2026-03-27T00:27:08Z</time>
<speed>6.0</speed>
</trkpt>
<trkpt lat="35.867098" lon="139.408091">
<ele>29.8</ele>
<time>2026-03-27T00:27:09Z</time>
<speed>5.8</speed>
</trkpt>
<trkpt lat="35.867198" lon="139.408125">
<ele>29.8</ele>
<time>2026-03-27T00:27:11Z</time>
<speed>5.6</speed>
</trkpt>
<trkpt lat="35.867338" lon="139.408191">
<ele>29.6</ele>
<time>2026-03-27T00:27:14Z</time>
<speed>4.8</speed>
</trkpt>
<trkpt lat="35.867457" lon="139.408253">
<ele>29.6</ele>
<time>2026-03-27T00:27:17Z</time>
<speed>4.2</speed>
</trkpt>
<trkpt lat="35.867563" lon="139.408304">
<ele>29.6</ele>
<time>2026-03-27T00:27:20Z</time>
<speed>4.8</speed>
</trkpt>
<trkpt lat="35.867773" lon="139.408371">
<ele>30.6</ele>
<time>2026-03-27T00:27:25Z</time>
<speed>4.7</speed>
</trkpt>
<trkpt lat="35.867815" lon="139.408379">
<ele>30.8</ele>
<time>2026-03-27T00:27:26Z</time>
<speed>4.9</speed>
</trkpt>
<trkpt lat="35.868031" lon="139.408419">
<ele>31.0</ele>
<time>2026-03-27T00:27:31Z</time>
<speed>4.5</speed>
</trkpt>
<trkpt lat="35.868223" lon="139.408489">
<ele>31.2</ele>
<time>2026-03-27T00:27:36Z</time>
<speed>4.8</speed>
</trkpt>
<trkpt lat="35.868393" lon="139.408525">
<ele>31.2</ele>
<time>2026-03-27T00:27:40Z</time>
<speed>5.7</speed>
</trkpt>
<trkpt lat="35.868642" lon="139.408591">
<ele>31.0</ele>
<time>2026-03-27T00:27:45Z</time>
<speed>5.1</speed>
</trkpt>
<trkpt lat="35.868686" lon="139.408577">
<ele>31.0</ele>
<time>2026-03-27T00:27:46Z</time>
<speed>5.2</speed>
</trkpt>
<trkpt lat="35.868862" lon="139.408496">
<ele>30.8</ele>
<time>2026-03-27T00:27:50Z</time>
<speed>5.9</speed>
</trkpt>
<trkpt lat="35.869020" lon="139.408480">
<ele>30.6</ele>
<time>2026-03-27T00:27:53Z</time>
<speed>5.2</speed>
</trkpt>
<trkpt lat="35.869114" lon="139.408477">
<ele>30.6</ele>
<time>2026-03-27T00:27:55Z</time>
<speed>4.6</speed>
</trkpt>
<trkpt lat="35.869406" lon="139.408464">
<ele>30.4</ele>
<time>2026-03-27T00:28:02Z</time>
<speed>2.4</speed>
</trkpt>
<trkpt lat="35.869489" lon="139.408443">
<ele>30.4</ele>
<time>2026-03-27T00:28:06Z</time>
<speed>0.3</speed>
</trkpt>
<trkpt lat="35.869537" lon="139.408483">
<ele>30.0</ele>
<time>2026-03-27T00:28:26Z</time>
<speed>2.9</speed>
</trkpt>
<trkpt lat="35.869563" lon="139.408487">
<ele>30.0</ele>
<time>2026-03-27T00:28:27Z</time>
<speed>3.7</speed>
</trkpt>
<trkpt lat="35.869729" lon="139.408513">
<ele>30.0</ele>
<time>2026-03-27T00:28:32Z</time>
<speed>5.0</speed>
</trkpt>
<trkpt lat="35.870001" lon="139.408502">
<ele>30.0</ele>
<time>2026-03-27T00:28:38Z</time>
<speed>5.2</speed>
</trkpt>
<trkpt lat="35.870233" lon="139.408541">
<ele>30.0</ele>
<time>2026-03-27T00:28:43Z</time>
<speed>5.4</speed>
</trkpt>
<trkpt lat="35.870323" lon="139.408585">
<ele>30.0</ele>
<time>2026-03-27T00:28:45Z</time>
<speed>5.3</speed>
</trkpt>
<trkpt lat="35.870628" lon="139.408760">
<ele>29.8</ele>
<time>2026-03-27T00:28:52Z</time>
<speed>5.8</speed>
</trkpt>
<trkpt lat="35.870764" lon="139.408854">
<ele>29.6</ele>
<time>2026-03-27T00:28:55Z</time>
<speed>5.8</speed>
</trkpt>
<trkpt lat="35.870946" lon="139.408979">
<ele>29.6</ele>
<time>2026-03-27T00:28:59Z</time>
<speed>5.8</speed>
</trkpt>
<trkpt lat="35.871343" lon="139.409280">
<ele>29.6</ele>
<time>2026-03-27T00:29:08Z</time>
<speed>6.2</speed>
</trkpt>
<trkpt lat="35.871812" lon="139.409650">
<ele>29.4</ele>
<time>2026-03-27T00:29:18Z</time>
<speed>6.4</speed>
</trkpt>
<trkpt lat="35.871861" lon="139.409688">
<ele>29.4</ele>
<time>2026-03-27T00:29:19Z</time>
<speed>6.1</speed>
</trkpt>
<trkpt lat="35.872319" lon="139.410059">
<ele>29.2</ele>
<time>2026-03-27T00:29:29Z</time>
<speed>6.3</speed>
</trkpt>
<trkpt lat="35.872664" lon="139.410415">
<ele>29.0</ele>
<time>2026-03-27T00:29:37Z</time>
<speed>6.4</speed>
</trkpt>
<trkpt lat="35.873080" lon="139.410909">
<ele>29.0</ele>
<time>2026-03-27T00:29:47Z</time>
<speed>4.3</speed>
</trkpt>
<trkpt lat="35.873111" lon="139.410938">
<ele>29.0</ele>
<time>2026-03-27T00:29:48Z</time>
<speed>4.3</speed>
</trkpt>
<trkpt lat="35.873188" lon="139.410948">
<ele>28.8</ele>
<time>2026-03-27T00:29:50Z</time>
<speed>4.4</speed>
</trkpt>
<trkpt lat="35.873283" lon="139.411037">
<ele>28.8</ele>
<time>2026-03-27T00:29:53Z</time>
<speed>5.4</speed>
</trkpt>
<trkpt lat="35.873341" lon="139.411133">
<ele>28.8</ele>
<time>2026-03-27T00:29:55Z</time>
<speed>5.6</speed>
</trkpt>
<trkpt lat="35.873472" lon="139.411322">
<ele>28.8</ele>
<time>2026-03-27T00:29:59Z</time>
<speed>5.8</speed>
</trkpt>
<trkpt lat="35.873543" lon="139.411417">
<ele>28.6</ele>
<time>2026-03-27T00:30:01Z</time>
<speed>5.7</speed>
</trkpt>
<trkpt lat="35.873793" lon="139.411740">
<ele>28.6</ele>
<time>2026-03-27T00:30:08Z</time>
<speed>5.9</speed>
</trkpt>
<trkpt lat="35.874133" lon="139.412154">
<ele>28.4</ele>
<time>2026-03-27T00:30:17Z</time>
<speed>5.8</speed>
</trkpt>
<trkpt lat="35.874465" lon="139.412566">
<ele>28.2</ele>
<time>2026-03-27T00:30:26Z</time>
<speed>5.8</speed>
</trkpt>
<trkpt lat="35.874679" lon="139.412850">
<ele>28.2</ele>
<time>2026-03-27T00:30:32Z</time>
<speed>5.9</speed>
</trkpt>
<trkpt lat="35.874943" lon="139.413073">
<ele>28.0</ele>
<time>2026-03-27T00:30:38Z</time>
<speed>4.9</speed>
</trkpt>
<trkpt lat="35.874998" lon="139.413158">
<ele>28.0</ele>
<time>2026-03-27T00:30:40Z</time>
<speed>4.9</speed>
</trkpt>
<trkpt lat="35.875000" lon="139.413212">
<ele>28.0</ele>
<time>2026-03-27T00:30:41Z</time>
<speed>3.1</speed>
</trkpt>
<trkpt lat="35.875057" lon="139.413289">
<ele>28.0</ele>
<time>2026-03-27T00:30:44Z</time>
<speed>5.7</speed>
</trkpt>
<trkpt lat="35.875102" lon="139.413320">
<ele>27.8</ele>
<time>2026-03-27T00:30:45Z</time>
<speed>5.8</speed>
</trkpt>
<trkpt lat="35.875290" lon="139.413433">
<ele>27.6</ele>
<time>2026-03-27T00:30:49Z</time>
<speed>5.9</speed>
</trkpt>
<trkpt lat="35.875629" lon="139.413612">
<ele>27.6</ele>
<time>2026-03-27T00:30:56Z</time>
<speed>6.6</speed>
</trkpt>
<trkpt lat="35.876011" lon="139.413812">
<ele>27.4</ele>
<time>2026-03-27T00:31:03Z</time>
<speed>6.2</speed>
</trkpt>
<trkpt lat="35.876370" lon="139.414001">
<ele>27.2</ele>
<time>2026-03-27T00:31:10Z</time>
<speed>6.0</speed>
</trkpt>
<trkpt lat="35.876521" lon="139.414077">
<ele>27.0</ele>
<time>2026-03-27T00:31:13Z</time>
<speed>5.8</speed>
</trkpt>
<trkpt lat="35.876603" lon="139.414157">
<ele>26.8</ele>
<time>2026-03-27T00:31:15Z</time>
<speed>5.5</speed>
</trkpt>
<trkpt lat="35.876802" lon="139.414337">
<ele>26.6</ele>
<time>2026-03-27T00:31:20Z</time>
<speed>5.0</speed>
</trkpt>
<trkpt lat="35.876919" lon="139.414422">
<ele>26.4</ele>
<time>2026-03-27T00:31:23Z</time>
<speed>5.2</speed>
</trkpt>
<trkpt lat="35.877007" lon="139.414459">
<ele>26.4</ele>
<time>2026-03-27T00:31:25Z</time>
<speed>5.4</speed>
</trkpt>
<trkpt lat="35.877191" lon="139.414537">
<ele>26.2</ele>
<time>2026-03-27T00:31:29Z</time>
<speed>4.7</speed>
</trkpt>
<trkpt lat="35.877262" lon="139.414594">
<ele>26.2</ele>
<time>2026-03-27T00:31:31Z</time>
<speed>4.8</speed>
</trkpt>
<trkpt lat="35.877334" lon="139.414652">
<ele>26.0</ele>
<time>2026-03-27T00:31:33Z</time>
<speed>5.0</speed>
</trkpt>
<trkpt lat="35.877443" lon="139.414748">
<ele>26.0</ele>
<time>2026-03-27T00:31:36Z</time>
<speed>5.0</speed>
</trkpt>
<trkpt lat="35.877628" lon="139.414905">
<ele>26.0</ele>
<time>2026-03-27T00:31:41Z</time>
<speed>5.8</speed>
</trkpt>
<trkpt lat="35.877838" lon="139.415094">
<ele>26.2</ele>
<time>2026-03-27T00:31:46Z</time>
<speed>5.9</speed>
</trkpt>
<trkpt lat="35.877874" lon="139.415142">
<ele>26.2</ele>
<time>2026-03-27T00:31:47Z</time>
<speed>4.5</speed>
</trkpt>
<trkpt lat="35.877937" lon="139.415326">
<ele>26.4</ele>
<time>2026-03-27T00:31:51Z</time>
<speed>2.2</speed>
</trkpt>
<trkpt lat="35.877952" lon="139.415342">
<ele>26.6</ele>
<time>2026-03-27T00:31:52Z</time>
<speed>2.9</speed>
</trkpt>
<trkpt lat="35.878004" lon="139.415352">
<ele>26.6</ele>
<time>2026-03-27T00:31:54Z</time>
<speed>5.2</speed>
</trkpt>
<trkpt lat="35.878188" lon="139.415383">
<ele>26.6</ele>
<time>2026-03-27T00:31:58Z</time>
<speed>4.3</speed>
</trkpt>
<trkpt lat="35.878305" lon="139.415379">
<ele>26.6</ele>
<time>2026-03-27T00:32:01Z</time>
<speed>4.2</speed>
</trkpt>
<trkpt lat="35.878330" lon="139.415344">
<ele>26.4</ele>
<time>2026-03-27T00:32:02Z</time>
<speed>4.1</speed>
</trkpt>
<trkpt lat="35.878441" lon="139.415343">
<ele>25.8</ele>
<time>2026-03-27T00:32:05Z</time>
<speed>4.4</speed>
</trkpt>
<trkpt lat="35.878480" lon="139.415354">
<ele>25.4</ele>
<time>2026-03-27T00:32:06Z</time>
<speed>4.6</speed>
</trkpt>
<trkpt lat="35.878640" lon="139.415410">
<ele>24.4</ele>
<time>2026-03-27T00:32:10Z</time>
<speed>4.7</speed>
</trkpt>
<trkpt lat="35.878719" lon="139.415446">
<ele>24.0</ele>
<time>2026-03-27T00:32:12Z</time>
<speed>4.8</speed>
</trkpt>
<trkpt lat="35.879045" lon="139.415586">
<ele>24.0</ele>
<time>2026-03-27T00:32:20Z</time>
<speed>3.8</speed>
</trkpt>
<trkpt lat="35.879249" lon="139.415616">
<ele>23.8</ele>
<time>2026-03-27T00:32:26Z</time>
<speed>1.4</speed>
</trkpt>
<trkpt lat="35.879298" lon="139.415618">
<ele>23.8</ele>
<time>2026-03-27T00:32:30Z</time>
<speed>0.2</speed>
</trkpt>
<trkpt lat="35.879391" lon="139.415644">
<ele>24.0</ele>
<time>2026-03-27T00:33:37Z</time>
<speed>3.8</speed>
</trkpt>
<trkpt lat="35.879529" lon="139.415767">
<ele>24.0</ele>
<time>2026-03-27T00:33:42Z</time>
<speed>4.3</speed>
</trkpt>
<trkpt lat="35.879698" lon="139.415880">
<ele>24.0</ele>
<time>2026-03-27T00:33:47Z</time>
<speed>4.2</speed>
</trkpt>
<trkpt lat="35.879902" lon="139.416004">
<ele>24.2</ele>
<time>2026-03-27T00:33:53Z</time>
<speed>4.6</speed>
</trkpt>
<trkpt lat="35.880136" lon="139.416102">
<ele>24.6</ele>
<time>2026-03-27T00:33:59Z</time>
<speed>4.8</speed>
</trkpt>
<trkpt lat="35.880488" lon="139.416297">
<ele>25.0</ele>
<time>2026-03-27T00:34:08Z</time>
<speed>5.0</speed>
</trkpt>
<trkpt lat="35.880782" lon="139.416444">
<ele>25.0</ele>
<time>2026-03-27T00:34:15Z</time>
<speed>4.7</speed>
</trkpt>
<trkpt lat="35.880822" lon="139.416462">
<ele>25.0</ele>
<time>2026-03-27T00:34:16Z</time>
<speed>5.2</speed>
</trkpt>
<trkpt lat="35.881085" lon="139.416574">
<ele>24.4</ele>
<time>2026-03-27T00:34:22Z</time>
<speed>4.9</speed>
</trkpt>
<trkpt lat="35.881297" lon="139.416655">
<ele>23.8</ele>
<time>2026-03-27T00:34:27Z</time>
<speed>4.9</speed>
</trkpt>
<trkpt lat="35.881341" lon="139.416648">
<ele>23.8</ele>
<time>2026-03-27T00:34:28Z</time>
<speed>5.2</speed>
</trkpt>
<trkpt lat="35.881460" lon="139.416556">
<ele>23.4</ele>
<time>2026-03-27T00:34:31Z</time>
<speed>5.1</speed>
</trkpt>
<trkpt lat="35.881498" lon="139.416524">
<ele>23.4</ele>
<time>2026-03-27T00:34:32Z</time>
<speed>5.4</speed>
</trkpt>
<trkpt lat="35.881539" lon="139.416491">
<ele>23.4</ele>
<time>2026-03-27T00:34:33Z</time>
<speed>5.5</speed>
</trkpt>
<trkpt lat="35.881620" lon="139.416421">
<ele>23.2</ele>
<time>2026-03-27T00:34:35Z</time>
<speed>4.9</speed>
</trkpt>
<trkpt lat="35.881692" lon="139.416359">
<ele>23.0</ele>
<time>2026-03-27T00:34:37Z</time>
<speed>4.9</speed>
</trkpt>
<trkpt lat="35.881730" lon="139.416331">
<ele>23.0</ele>
<time>2026-03-27T00:34:38Z</time>
<speed>5.2</speed>
</trkpt>
<trkpt lat="35.881851" lon="139.416246">
<ele>22.8</ele>
<time>2026-03-27T00:34:41Z</time>
<speed>5.4</speed>
</trkpt>
<trkpt lat="35.881989" lon="139.416192">
<ele>22.4</ele>
<time>2026-03-27T00:34:44Z</time>
<speed>5.6</speed>
</trkpt>
<trkpt lat="35.882039" lon="139.416193">
<ele>22.4</ele>
<time>2026-03-27T00:34:45Z</time>
<speed>5.6</speed>
</trkpt>
<trkpt lat="35.882088" lon="139.416206">
<ele>22.2</ele>
<time>2026-03-27T00:34:46Z</time>
<speed>5.5</speed>
</trkpt>
<trkpt lat="35.882135" lon="139.416225">
<ele>22.2</ele>
<time>2026-03-27T00:34:47Z</time>
<speed>5.6</speed>
</trkpt>
<trkpt lat="35.882608" lon="139.416440">
<ele>21.8</ele>
<time>2026-03-27T00:34:57Z</time>
<speed>5.8</speed>
</trkpt>
<trkpt lat="35.883042" lon="139.416657">
<ele>21.8</ele>
<time>2026-03-27T00:35:06Z</time>
<speed>5.4</speed>
</trkpt>
<trkpt lat="35.883089" lon="139.416673">
<ele>21.8</ele>
<time>2026-03-27T00:35:07Z</time>
<speed>5.5</speed>
</trkpt>
<trkpt lat="35.883321" lon="139.416783">
<ele>21.6</ele>
<time>2026-03-27T00:35:12Z</time>
<speed>6.0</speed>
</trkpt>
<trkpt lat="35.883672" lon="139.416946">
<ele>21.6</ele>
<time>2026-03-27T00:35:19Z</time>
<speed>5.9</speed>
</trkpt>
<trkpt lat="35.883721" lon="139.416972">
<ele>21.6</ele>
<time>2026-03-27T00:35:20Z</time>
<speed>6.2</speed>
</trkpt>
<trkpt lat="35.884187" lon="139.417198">
<ele>21.4</ele>
<time>2026-03-27T00:35:29Z</time>
<speed>6.5</speed>
</trkpt>
<trkpt lat="35.884402" lon="139.417310">
<ele>21.2</ele>
<time>2026-03-27T00:35:33Z</time>
<speed>6.4</speed>
</trkpt>
<trkpt lat="35.884672" lon="139.417437">
<ele>21.2</ele>
<time>2026-03-27T00:35:38Z</time>
<speed>6.2</speed>
</trkpt>
<trkpt lat="35.885081" lon="139.417662">
<ele>21.0</ele>
<time>2026-03-27T00:35:46Z</time>
<speed>6.3</speed>
</trkpt>
<trkpt lat="35.885568" lon="139.418014">
<ele>20.8</ele>
<time>2026-03-27T00:35:56Z</time>
<speed>6.5</speed>
</trkpt>
<trkpt lat="35.885956" lon="139.418344">
<ele>20.6</ele>
<time>2026-03-27T00:36:04Z</time>
<speed>6.2</speed>
</trkpt>
<trkpt lat="35.886133" lon="139.418508">
<ele>20.6</ele>
<time>2026-03-27T00:36:08Z</time>
<speed>6.2</speed>
</trkpt>
<trkpt lat="35.886384" lon="139.418784">
<ele>20.4</ele>
<time>2026-03-27T00:36:14Z</time>
<speed>6.4</speed>
</trkpt>
<trkpt lat="35.886434" lon="139.418819">
<ele>20.4</ele>
<time>2026-03-27T00:36:15Z</time>
<speed>5.9</speed>
</trkpt>
<trkpt lat="35.886816" lon="139.419049">
<ele>20.6</ele>
<time>2026-03-27T00:36:23Z</time>
<speed>6.0</speed>
</trkpt>
<trkpt lat="35.887257" lon="139.419294">
<ele>20.6</ele>
<time>2026-03-27T00:36:32Z</time>
<speed>5.8</speed>
</trkpt>
<trkpt lat="35.887692" lon="139.419511">
<ele>20.6</ele>
<time>2026-03-27T00:36:41Z</time>
<speed>5.1</speed>
</trkpt>
<trkpt lat="35.887933" lon="139.419669">
<ele>20.6</ele>
<time>2026-03-27T00:36:47Z</time>
<speed>5.2</speed>
</trkpt>
<trkpt lat="35.888225" lon="139.419848">
<ele>20.8</ele>
<time>2026-03-27T00:36:54Z</time>
<speed>5.3</speed>
</trkpt>
<trkpt lat="35.888564" lon="139.420072">
<ele>20.8</ele>
<time>2026-03-27T00:37:02Z</time>
<speed>5.5</speed>
</trkpt>
<trkpt lat="35.888649" lon="139.420134">
<ele>20.8</ele>
<time>2026-03-27T00:37:04Z</time>
<speed>5.3</speed>
</trkpt>
<trkpt lat="35.888768" lon="139.420234">
<ele>20.8</ele>
<time>2026-03-27T00:37:07Z</time>
<speed>5.6</speed>
</trkpt>
<trkpt lat="35.888863" lon="139.420273">
<ele>20.8</ele>
<time>2026-03-27T00:37:09Z</time>
<speed>5.6</speed>
</trkpt>
<trkpt lat="35.889055" lon="139.420353">
<ele>20.8</ele>
<time>2026-03-27T00:37:13Z</time>
<speed>5.7</speed>
</trkpt>
<trkpt lat="35.889479" lon="139.420571">
<ele>20.8</ele>
<time>2026-03-27T00:37:22Z</time>
<speed>5.9</speed>
</trkpt>
<trkpt lat="35.889795" lon="139.420816">
<ele>20.6</ele>
<time>2026-03-27T00:37:29Z</time>
<speed>5.7</speed>
</trkpt>
<trkpt lat="35.889881" lon="139.420884">
<ele>20.6</ele>
<time>2026-03-27T00:37:31Z</time>
<speed>5.5</speed>
</trkpt>
<trkpt lat="35.890032" lon="139.421039">
<ele>20.6</ele>
<time>2026-03-27T00:37:35Z</time>
<speed>5.8</speed>
</trkpt>
<trkpt lat="35.890246" lon="139.421221">
<ele>20.6</ele>
<time>2026-03-27T00:37:40Z</time>
<speed>5.8</speed>
</trkpt>
<trkpt lat="35.890341" lon="139.421274">
<ele>20.6</ele>
<time>2026-03-27T00:37:42Z</time>
<speed>5.2</speed>
</trkpt>
<trkpt lat="35.890508" lon="139.421373">
<ele>20.6</ele>
<time>2026-03-27T00:37:46Z</time>
<speed>5.4</speed>
</trkpt>
<trkpt lat="35.890582" lon="139.421449">
<ele>20.6</ele>
<time>2026-03-27T00:37:48Z</time>
<speed>5.3</speed>
</trkpt>
<trkpt lat="35.890943" lon="139.421735">
<ele>20.6</ele>
<time>2026-03-27T00:37:57Z</time>
<speed>5.0</speed>
</trkpt>
<trkpt lat="35.890986" lon="139.421753">
<ele>20.6</ele>
<time>2026-03-27T00:37:58Z</time>
<speed>4.8</speed>
</trkpt>
<trkpt lat="35.891158" lon="139.421784">
<ele>20.6</ele>
<time>2026-03-27T00:38:02Z</time>
<speed>5.0</speed>
</trkpt>
<trkpt lat="35.891417" lon="139.421887">
<ele>20.8</ele>
<time>2026-03-27T00:38:08Z</time>
<speed>5.3</speed>
</trkpt>
<trkpt lat="35.891740" lon="139.421992">
<ele>20.8</ele>
<time>2026-03-27T00:38:15Z</time>
<speed>4.7</speed>
</trkpt>
<trkpt lat="35.891926" lon="139.422119">
<ele>20.6</ele>
<time>2026-03-27T00:38:20Z</time>
<speed>4.5</speed>
</trkpt>
<trkpt lat="35.891913" lon="139.422268">
<ele>20.2</ele>
<time>2026-03-27T00:38:23Z</time>
<speed>4.5</speed>
</trkpt>
<trkpt lat="35.891904" lon="139.422368">
<ele>20.2</ele>
<time>2026-03-27T00:38:25Z</time>
<speed>4.8</speed>
</trkpt>
<trkpt lat="35.891875" lon="139.422576">
<ele>20.2</ele>
<time>2026-03-27T00:38:29Z</time>
<speed>5.1</speed>
</trkpt>
<trkpt lat="35.891836" lon="139.422914">
<ele>20.8</ele>
<time>2026-03-27T00:38:35Z</time>
<speed>5.0</speed>
</trkpt>
<trkpt lat="35.891826" lon="139.423081">
<ele>20.8</ele>
<time>2026-03-27T00:38:38Z</time>
<speed>5.2</speed>
</trkpt>
<trkpt lat="35.891802" lon="139.423192">
<ele>20.8</ele>
<time>2026-03-27T00:38:40Z</time>
<speed>3.2</speed>
</trkpt>
<trkpt lat="35.891779" lon="139.423256">
<ele>20.8</ele>
<time>2026-03-27T00:38:42Z</time>
<speed>3.2</speed>
</trkpt>
<trkpt lat="35.891750" lon="139.423254">
<ele>20.8</ele>
<time>2026-03-27T00:38:43Z</time>
<speed>4.1</speed>
</trkpt>
<trkpt lat="35.891648" lon="139.423200">
<ele>20.6</ele>
<time>2026-03-27T00:38:46Z</time>
<speed>4.4</speed>
</trkpt>
<trkpt lat="35.891385" lon="139.423099">
<ele>20.6</ele>
<time>2026-03-27T00:38:53Z</time>
<speed>4.3</speed>
</trkpt>
<trkpt lat="35.891158" lon="139.423038">
<ele>21.2</ele>
<time>2026-03-27T00:38:59Z</time>
<speed>2.6</speed>
</trkpt>
<trkpt lat="35.891144" lon="139.423061">
<ele>21.4</ele>
<time>2026-03-27T00:39:00Z</time>
<speed>2.3</speed>
</trkpt>
<trkpt lat="35.891167" lon="139.423104">
<ele>21.8</ele>
<time>2026-03-27T00:39:02Z</time>
<speed>3.5</speed>
</trkpt>
<trkpt lat="35.891256" lon="139.423143">
<ele>22.2</ele>
<time>2026-03-27T00:39:05Z</time>
<speed>4.5</speed>
</trkpt>
<trkpt lat="35.891292" lon="139.423165">
<ele>22.4</ele>
<time>2026-03-27T00:39:06Z</time>
<speed>4.6</speed>
</trkpt>
<trkpt lat="35.891524" lon="139.423281">
<ele>23.0</ele>
<time>2026-03-27T00:39:12Z</time>
<speed>4.7</speed>
</trkpt>
<trkpt lat="35.891872" lon="139.423461">
<ele>23.2</ele>
<time>2026-03-27T00:39:21Z</time>
<speed>5.4</speed>
</trkpt>
<trkpt lat="35.892240" lon="139.423627">
<ele>23.0</ele>
<time>2026-03-27T00:39:29Z</time>
<speed>5.4</speed>
</trkpt>
<trkpt lat="35.892557" lon="139.423777">
<ele>22.8</ele>
<time>2026-03-27T00:39:36Z</time>
<speed>5.3</speed>
</trkpt>
<trkpt lat="35.892914" lon="139.423941">
<ele>22.8</ele>
<time>2026-03-27T00:39:44Z</time>
<speed>5.5</speed>
</trkpt>
<trkpt lat="35.893254" lon="139.424022">
<ele>22.8</ele>
<time>2026-03-27T00:39:51Z</time>
<speed>5.3</speed>
</trkpt>
<trkpt lat="35.893540" lon="139.424063">
<ele>22.6</ele>
<time>2026-03-27T00:39:57Z</time>
<speed>5.5</speed>
</trkpt>
<trkpt lat="35.893881" lon="139.424111">
<ele>22.6</ele>
<time>2026-03-27T00:40:04Z</time>
<speed>5.7</speed>
</trkpt>
<trkpt lat="35.894236" lon="139.424184">
<ele>22.4</ele>
<time>2026-03-27T00:40:11Z</time>
<speed>6.3</speed>
</trkpt>
<trkpt lat="35.894624" lon="139.424299">
<ele>22.2</ele>
<time>2026-03-27T00:40:18Z</time>
<speed>6.0</speed>
</trkpt>
<trkpt lat="35.894919" lon="139.424464">
<ele>22.2</ele>
<time>2026-03-27T00:40:24Z</time>
<speed>6.4</speed>
</trkpt>
<trkpt lat="35.895348" lon="139.424828">
<ele>22.0</ele>
<time>2026-03-27T00:40:33Z</time>
<speed>6.0</speed>
</trkpt>
<trkpt lat="35.895727" lon="139.425201">
<ele>21.8</ele>
<time>2026-03-27T00:40:42Z</time>
<speed>5.4</speed>
</trkpt>
<trkpt lat="35.896021" lon="139.425510">
<ele>21.6</ele>
<time>2026-03-27T00:40:50Z</time>
<speed>4.7</speed>
</trkpt>
<trkpt lat="35.896173" lon="139.425691">
<ele>21.4</ele>
<time>2026-03-27T00:40:55Z</time>
<speed>4.3</speed>
</trkpt>
<trkpt lat="35.896288" lon="139.425816">
<ele>21.2</ele>
<time>2026-03-27T00:40:59Z</time>
<speed>4.1</speed>
</trkpt>
<trkpt lat="35.896467" lon="139.426041">
<ele>21.2</ele>
<time>2026-03-27T00:41:06Z</time>
<speed>5.2</speed>
</trkpt>
<trkpt lat="35.896686" lon="139.426342">
<ele>21.4</ele>
<time>2026-03-27T00:41:13Z</time>
<speed>6.0</speed>
</trkpt>
<trkpt lat="35.896989" lon="139.426812">
<ele>21.2</ele>
<time>2026-03-27T00:41:22Z</time>
<speed>6.3</speed>
</trkpt>
<trkpt lat="35.897277" lon="139.427334">
<ele>21.0</ele>
<time>2026-03-27T00:41:31Z</time>
<speed>6.1</speed>
</trkpt>
<trkpt lat="35.897498" lon="139.427798">
<ele>20.8</ele>
<time>2026-03-27T00:41:39Z</time>
<speed>6.2</speed>
</trkpt>
<trkpt lat="35.897764" lon="139.428408">
<ele>20.4</ele>
<time>2026-03-27T00:41:49Z</time>
<speed>5.8</speed>
</trkpt>
<trkpt lat="35.897880" lon="139.428620">
<ele>20.4</ele>
<time>2026-03-27T00:41:53Z</time>
<speed>5.4</speed>
</trkpt>
<trkpt lat="35.897969" lon="139.428761">
<ele>20.2</ele>
<time>2026-03-27T00:41:56Z</time>
<speed>3.7</speed>
</trkpt>
<trkpt lat="35.898095" lon="139.428894">
<ele>20.2</ele>
<time>2026-03-27T00:42:01Z</time>
<speed>4.1</speed>
</trkpt>
<trkpt lat="35.898131" lon="139.428884">
<ele>20.2</ele>
<time>2026-03-27T00:42:02Z</time>
<speed>5.0</speed>
</trkpt>
<trkpt lat="35.898219" lon="139.428859">
<ele>20.2</ele>
<time>2026-03-27T00:42:04Z</time>
<speed>5.0</speed>
</trkpt>
<trkpt lat="35.898414" lon="139.428724">
<ele>19.6</ele>
<time>2026-03-27T00:42:09Z</time>
<speed>3.3</speed>
</trkpt>
<trkpt lat="35.898437" lon="139.428700">
<ele>19.4</ele>
<time>2026-03-27T00:42:10Z</time>
<speed>3.1</speed>
</trkpt>
<trkpt lat="35.898459" lon="139.428679">
<ele>19.2</ele>
<time>2026-03-27T00:42:11Z</time>
<speed>2.4</speed>
</trkpt>
<trkpt lat="35.898505" lon="139.428624">
<ele>18.4</ele>
<time>2026-03-27T00:42:14Z</time>
<speed>2.5</speed>
</trkpt>
<trkpt lat="35.898524" lon="139.428609">
<ele>18.2</ele>
<time>2026-03-27T00:42:15Z</time>
<speed>2.3</speed>
</trkpt>
<trkpt lat="35.898622" lon="139.428569">
<ele>17.8</ele>
<time>2026-03-27T00:42:20Z</time>
<speed>1.7</speed>
</trkpt>
<trkpt lat="35.898673" lon="139.428529">
<ele>17.6</ele>
<time>2026-03-27T00:42:24Z</time>
<speed>0.4</speed>
</trkpt>
<trkpt lat="35.898756" lon="139.428390">
<ele>17.4</ele>
<time>2026-03-27T00:43:00Z</time>
<speed>1.5</speed>
</trkpt>
<trkpt lat="35.898753" lon="139.428374">
<ele>17.4</ele>
<time>2026-03-27T00:43:01Z</time>
<speed>0.2</speed>
</trkpt>
<trkpt lat="35.898788" lon="139.428315">
<ele>17.6</ele>
<time>2026-03-27T00:43:32Z</time>
<speed>1.8</speed>
</trkpt>
<trkpt lat="35.898816" lon="139.428295">
<ele>17.6</ele>
<time>2026-03-27T00:43:34Z</time>
<speed>2.0</speed>
</trkpt>
<trkpt lat="35.898838" lon="139.428261">
<ele>17.6</ele>
<time>2026-03-27T00:43:36Z</time>
<speed>2.4</speed>
</trkpt>
<trkpt lat="35.898903" lon="139.428191">
<ele>17.6</ele>
<time>2026-03-27T00:43:40Z</time>
<speed>3.4</speed>
</trkpt>
<trkpt lat="35.899023" lon="139.428022">
<ele>17.8</ele>
<time>2026-03-27T00:43:46Z</time>
<speed>4.1</speed>
</trkpt>
<trkpt lat="35.899159" lon="139.427871">
<ele>18.0</ele>
<time>2026-03-27T00:43:51Z</time>
<speed>4.0</speed>
</trkpt>
<trkpt lat="35.899353" lon="139.427668">
<ele>18.2</ele>
<time>2026-03-27T00:43:58Z</time>
<speed>4.0</speed>
</trkpt>
<trkpt lat="35.899481" lon="139.427512">
<ele>18.2</ele>
<time>2026-03-27T00:44:03Z</time>
<speed>3.8</speed>
</trkpt>
<trkpt lat="35.899598" lon="139.427355">
<ele>18.0</ele>
<time>2026-03-27T00:44:08Z</time>
<speed>3.3</speed>
</trkpt>
<trkpt lat="35.899717" lon="139.427192">
<ele>18.2</ele>
<time>2026-03-27T00:44:14Z</time>
<speed>3.0</speed>
</trkpt>
<trkpt lat="35.899873" lon="139.427065">
<ele>18.4</ele>
<time>2026-03-27T00:44:21Z</time>
<speed>2.5</speed>
</trkpt>
<trkpt lat="35.899892" lon="139.427079">
<ele>18.4</ele>
<time>2026-03-27T00:44:22Z</time>
<speed>3.3</speed>
</trkpt>
<trkpt lat="35.899955" lon="139.427155">
<ele>18.4</ele>
<time>2026-03-27T00:44:25Z</time>
<speed>3.8</speed>
</trkpt>
<trkpt lat="35.900111" lon="139.427321">
<ele>18.4</ele>
<time>2026-03-27T00:44:31Z</time>
<speed>3.9</speed>
</trkpt>
<trkpt lat="35.900298" lon="139.427513">
<ele>18.2</ele>
<time>2026-03-27T00:44:38Z</time>
<speed>4.0</speed>
</trkpt>
<trkpt lat="35.900479" lon="139.427729">
<ele>18.0</ele>
<time>2026-03-27T00:44:45Z</time>
<speed>4.9</speed>
</trkpt>
<trkpt lat="35.900582" lon="139.427908">
<ele>18.0</ele>
<time>2026-03-27T00:44:49Z</time>
<speed>4.7</speed>
</trkpt>
<trkpt lat="35.900603" lon="139.427953">
<ele>18.0</ele>
<time>2026-03-27T00:44:50Z</time>
<speed>4.1</speed>
</trkpt>
<trkpt lat="35.900695" lon="139.428248">
<ele>18.0</ele>
<time>2026-03-27T00:44:57Z</time>
<speed>4.0</speed>
</trkpt>
<trkpt lat="35.900774" lon="139.428447">
<ele>18.0</ele>
<time>2026-03-27T00:45:02Z</time>
<speed>4.9</speed>
</trkpt>
<trkpt lat="35.900840" lon="139.428766">
<ele>18.0</ele>
<time>2026-03-27T00:45:08Z</time>
<speed>4.8</speed>
</trkpt>
<trkpt lat="35.900913" lon="139.429186">
<ele>17.8</ele>
<time>2026-03-27T00:45:16Z</time>
<speed>3.7</speed>
</trkpt>
<trkpt lat="35.900982" lon="139.429464">
<ele>17.8</ele>
<time>2026-03-27T00:45:23Z</time>
<speed>3.4</speed>
</trkpt>
<trkpt lat="35.901050" lon="139.429752">
<ele>17.8</ele>
<time>2026-03-27T00:45:31Z</time>
<speed>3.7</speed>
</trkpt>
<trkpt lat="35.901131" lon="139.429980">
<ele>17.8</ele>
<time>2026-03-27T00:45:37Z</time>
<speed>4.8</speed>
</trkpt>
<trkpt lat="35.901186" lon="139.430061">
<ele>17.8</ele>
<time>2026-03-27T00:45:39Z</time>
<speed>5.1</speed>
</trkpt>
<trkpt lat="35.901260" lon="139.430129">
<ele>17.8</ele>
<time>2026-03-27T00:45:41Z</time>
<speed>4.7</speed>
</trkpt>
<trkpt lat="35.901372" lon="139.430203">
<ele>17.8</ele>
<time>2026-03-27T00:45:44Z</time>
<speed>4.5</speed>
</trkpt>
<trkpt lat="35.901489" lon="139.430248">
<ele>17.6</ele>
<time>2026-03-27T00:45:47Z</time>
<speed>4.9</speed>
</trkpt>
<trkpt lat="35.901693" lon="139.430345">
<ele>17.2</ele>
<time>2026-03-27T00:45:52Z</time>
<speed>5.5</speed>
</trkpt>
<trkpt lat="35.901820" lon="139.430439">
<ele>17.2</ele>
<time>2026-03-27T00:45:55Z</time>
<speed>5.5</speed>
</trkpt>
<trkpt lat="35.901857" lon="139.430480">
<ele>17.2</ele>
<time>2026-03-27T00:45:56Z</time>
<speed>5.1</speed>
</trkpt>
<trkpt lat="35.901892" lon="139.430517">
<ele>17.0</ele>
<time>2026-03-27T00:45:57Z</time>
<speed>5.1</speed>
</trkpt>
<trkpt lat="35.901924" lon="139.430558">
<ele>17.0</ele>
<time>2026-03-27T00:45:58Z</time>
<speed>4.9</speed>
</trkpt>
<trkpt lat="35.901972" lon="139.430650">
<ele>16.8</ele>
<time>2026-03-27T00:46:00Z</time>
<speed>4.8</speed>
</trkpt>
<trkpt lat="35.902051" lon="139.430841">
<ele>16.6</ele>
<time>2026-03-27T00:46:04Z</time>
<speed>4.5</speed>
</trkpt>
<trkpt lat="35.902092" lon="139.430981">
<ele>16.4</ele>
<time>2026-03-27T00:46:07Z</time>
<speed>4.4</speed>
</trkpt>
<trkpt lat="35.902103" lon="139.431028">
<ele>16.4</ele>
<time>2026-03-27T00:46:08Z</time>
<speed>4.9</speed>
</trkpt>
<trkpt lat="35.902200" lon="139.431329">
<ele>16.2</ele>
<time>2026-03-27T00:46:14Z</time>
<speed>4.7</speed>
</trkpt>
<trkpt lat="35.902291" lon="139.431563">
<ele>16.2</ele>
<time>2026-03-27T00:46:19Z</time>
<speed>5.0</speed>
</trkpt>
<trkpt lat="35.902418" lon="139.431920">
<ele>16.2</ele>
<time>2026-03-27T00:46:26Z</time>
<speed>4.7</speed>
</trkpt>
<trkpt lat="35.902455" lon="139.432013">
<ele>16.2</ele>
<time>2026-03-27T00:46:28Z</time>
<speed>4.3</speed>
</trkpt>
<trkpt lat="35.902554" lon="139.432160">
<ele>16.2</ele>
<time>2026-03-27T00:46:32Z</time>
<speed>3.9</speed>
</trkpt>
<trkpt lat="35.902657" lon="139.432278">
<ele>16.2</ele>
<time>2026-03-27T00:46:36Z</time>
<speed>3.2</speed>
</trkpt>
<trkpt lat="35.902686" lon="139.432280">
<ele>16.2</ele>
<time>2026-03-27T00:46:37Z</time>
<speed>3.3</speed>
</trkpt>
<trkpt lat="35.902744" lon="139.432261">
<ele>16.0</ele>
<time>2026-03-27T00:46:39Z</time>
<speed>3.8</speed>
</trkpt>
<trkpt lat="35.902830" lon="139.432194">
<ele>16.0</ele>
<time>2026-03-27T00:46:42Z</time>
<speed>3.9</speed>
</trkpt>
<trkpt lat="35.902883" lon="139.432138">
<ele>16.0</ele>
<time>2026-03-27T00:46:44Z</time>
<speed>4.3</speed>
</trkpt>
<trkpt lat="35.902945" lon="139.432082">
<ele>15.8</ele>
<time>2026-03-27T00:46:46Z</time>
<speed>4.5</speed>
</trkpt>
<trkpt lat="35.903015" lon="139.432032">
<ele>15.4</ele>
<time>2026-03-27T00:46:48Z</time>
<speed>4.5</speed>
</trkpt>
<trkpt lat="35.903052" lon="139.432011">
<ele>15.4</ele>
<time>2026-03-27T00:46:49Z</time>
<speed>4.5</speed>
</trkpt>
<trkpt lat="35.903131" lon="139.431989">
<ele>15.2</ele>
<time>2026-03-27T00:46:51Z</time>
<speed>4.9</speed>
</trkpt>
<trkpt lat="35.903262" lon="139.431991">
<ele>15.0</ele>
<time>2026-03-27T00:46:54Z</time>
<speed>4.8</speed>
</trkpt>
<trkpt lat="35.903305" lon="139.431999">
<ele>15.0</ele>
<time>2026-03-27T00:46:55Z</time>
<speed>5.2</speed>
</trkpt>
<trkpt lat="35.903351" lon="139.432008">
<ele>15.0</ele>
<time>2026-03-27T00:46:56Z</time>
<speed>5.3</speed>
</trkpt>
<trkpt lat="35.903533" lon="139.432082">
<ele>14.8</ele>
<time>2026-03-27T00:47:00Z</time>
<speed>5.1</speed>
</trkpt>
<trkpt lat="35.903744" lon="139.432191">
<ele>14.8</ele>
<time>2026-03-27T00:47:05Z</time>
<speed>4.7</speed>
</trkpt>
<trkpt lat="35.903813" lon="139.432251">
<ele>14.6</ele>
<time>2026-03-27T00:47:07Z</time>
<speed>4.7</speed>
</trkpt>
<trkpt lat="35.903987" lon="139.432402">
<ele>14.0</ele>
<time>2026-03-27T00:47:12Z</time>
<speed>5.1</speed>
</trkpt>
<trkpt lat="35.904024" lon="139.432435">
<ele>14.0</ele>
<time>2026-03-27T00:47:13Z</time>
<speed>5.1</speed>
</trkpt>
<trkpt lat="35.904090" lon="139.432513">
<ele>13.8</ele>
<time>2026-03-27T00:47:15Z</time>
<speed>5.1</speed>
</trkpt>
<trkpt lat="35.904205" lon="139.432687">
<ele>13.8</ele>
<time>2026-03-27T00:47:19Z</time>
<speed>5.1</speed>
</trkpt>
<trkpt lat="35.904339" lon="139.432914">
<ele>13.4</ele>
<time>2026-03-27T00:47:24Z</time>
<speed>4.7</speed>
</trkpt>
<trkpt lat="35.904509" lon="139.433217">
<ele>13.2</ele>
<time>2026-03-27T00:47:31Z</time>
<speed>4.3</speed>
</trkpt>
<trkpt lat="35.904655" lon="139.433503">
<ele>13.2</ele>
<time>2026-03-27T00:47:38Z</time>
<speed>4.2</speed>
</trkpt>
<trkpt lat="35.904737" lon="139.433766">
<ele>13.2</ele>
<time>2026-03-27T00:47:44Z</time>
<speed>3.7</speed>
</trkpt>
<trkpt lat="35.904735" lon="139.434014">
<ele>13.2</ele>
<time>2026-03-27T00:47:50Z</time>
<speed>4.2</speed>
</trkpt>
<trkpt lat="35.904696" lon="139.434145">
<ele>13.2</ele>
<time>2026-03-27T00:47:53Z</time>
<speed>4.7</speed>
</trkpt>
<trkpt lat="35.904635" lon="139.434281">
<ele>13.2</ele>
<time>2026-03-27T00:47:56Z</time>
<speed>4.8</speed>
</trkpt>
<trkpt lat="35.904527" lon="139.434449">
<ele>13.2</ele>
<time>2026-03-27T00:48:00Z</time>
<speed>4.7</speed>
</trkpt>
<trkpt lat="35.904459" lon="139.434580">
<ele>13.2</ele>
<time>2026-03-27T00:48:03Z</time>
<speed>4.7</speed>
</trkpt>
<trkpt lat="35.904408" lon="139.434723">
<ele>13.4</ele>
<time>2026-03-27T00:48:06Z</time>
<speed>4.8</speed>
</trkpt>
<trkpt lat="35.904355" lon="139.434924">
<ele>13.4</ele>
<time>2026-03-27T00:48:10Z</time>
<speed>4.3</speed>
</trkpt>
<trkpt lat="35.904332" lon="139.435113">
<ele>13.6</ele>
<time>2026-03-27T00:48:14Z</time>
<speed>4.1</speed>
</trkpt>
<trkpt lat="35.904325" lon="139.435158">
<ele>13.6</ele>
<time>2026-03-27T00:48:15Z</time>
<speed>4.0</speed>
</trkpt>
<trkpt lat="35.904286" lon="139.435417">
<ele>13.6</ele>
<time>2026-03-27T00:48:21Z</time>
<speed>2.9</speed>
</trkpt>
<trkpt lat="35.904314" lon="139.435572">
<ele>13.8</ele>
<time>2026-03-27T00:48:26Z</time>
<speed>3.3</speed>
</trkpt>
<trkpt lat="35.904450" lon="139.435717">
<ele>14.0</ele>
<time>2026-03-27T00:48:32Z</time>
<speed>4.3</speed>
</trkpt>
<trkpt lat="35.904694" lon="139.435949">
<ele>14.8</ele>
<time>2026-03-27T00:48:40Z</time>
<speed>4.4</speed>
</trkpt>
<trkpt lat="35.904796" lon="139.436025">
<ele>15.0</ele>
<time>2026-03-27T00:48:43Z</time>
<speed>4.5</speed>
</trkpt>
<trkpt lat="35.904901" lon="139.436102">
<ele>15.0</ele>
<time>2026-03-27T00:48:46Z</time>
<speed>4.4</speed>
</trkpt>
<trkpt lat="35.905144" lon="139.436263">
<ele>15.2</ele>
<time>2026-03-27T00:48:53Z</time>
<speed>4.6</speed>
</trkpt>
<trkpt lat="35.905278" lon="139.436380">
<ele>15.2</ele>
<time>2026-03-27T00:48:57Z</time>
<speed>4.8</speed>
</trkpt>
<trkpt lat="35.905373" lon="139.436487">
<ele>15.0</ele>
<time>2026-03-27T00:49:00Z</time>
<speed>4.0</speed>
</trkpt>
<trkpt lat="35.905532" lon="139.436668">
<ele>14.8</ele>
<time>2026-03-27T00:49:06Z</time>
<speed>3.9</speed>
</trkpt>
<trkpt lat="35.905703" lon="139.436824">
<ele>14.4</ele>
<time>2026-03-27T00:49:12Z</time>
<speed>3.4</speed>
</trkpt>
<trkpt lat="35.905913" lon="139.436974">
<ele>14.4</ele>
<time>2026-03-27T00:49:20Z</time>
<speed>3.7</speed>
</trkpt>
<trkpt lat="35.906036" lon="139.437112">
<ele>14.2</ele>
<time>2026-03-27T00:49:25Z</time>
<speed>4.3</speed>
</trkpt>
<trkpt lat="35.906177" lon="139.437338">
<ele>14.0</ele>
<time>2026-03-27T00:49:31Z</time>
<speed>4.5</speed>
</trkpt>
<trkpt lat="35.906281" lon="139.437490">
<ele>14.0</ele>
<time>2026-03-27T00:49:35Z</time>
<speed>4.4</speed>
</trkpt>
<trkpt lat="35.906348" lon="139.437609">
<ele>13.8</ele>
<time>2026-03-27T00:49:38Z</time>
<speed>4.2</speed>
</trkpt>
<trkpt lat="35.906501" lon="139.437812">
<ele>13.6</ele>
<time>2026-03-27T00:49:44Z</time>
<speed>4.4</speed>
</trkpt>
<trkpt lat="35.906581" lon="139.438035">
<ele>13.6</ele>
<time>2026-03-27T00:49:49Z</time>
<speed>4.5</speed>
</trkpt>
<trkpt lat="35.906600" lon="139.438281">
<ele>13.8</ele>
<time>2026-03-27T00:49:54Z</time>
<speed>4.8</speed>
</trkpt>
<trkpt lat="35.906636" lon="139.438654">
<ele>14.4</ele>
<time>2026-03-27T00:50:01Z</time>
<speed>4.6</speed>
</trkpt>
<trkpt lat="35.906671" lon="139.438960">
<ele>14.6</ele>
<time>2026-03-27T00:50:07Z</time>
<speed>4.4</speed>
</trkpt>
<trkpt lat="35.906697" lon="139.439300">
<ele>14.6</ele>
<time>2026-03-27T00:50:14Z</time>
<speed>4.4</speed>
</trkpt>
<trkpt lat="35.906703" lon="139.439348">
<ele>14.6</ele>
<time>2026-03-27T00:50:15Z</time>
<speed>4.8</speed>
</trkpt>
<trkpt lat="35.906720" lon="139.439453">
<ele>14.6</ele>
<time>2026-03-27T00:50:17Z</time>
<speed>4.9</speed>
</trkpt>
<trkpt lat="35.906718" lon="139.439561">
<ele>14.4</ele>
<time>2026-03-27T00:50:19Z</time>
<speed>5.0</speed>
</trkpt>
<trkpt lat="35.906678" lon="139.439720">
<ele>14.4</ele>
<time>2026-03-27T00:50:22Z</time>
<speed>5.0</speed>
</trkpt>
<trkpt lat="35.906640" lon="139.439881">
<ele>14.2</ele>
<time>2026-03-27T00:50:25Z</time>
<speed>4.7</speed>
</trkpt>
<trkpt lat="35.906605" lon="139.440194">
<ele>13.8</ele>
<time>2026-03-27T00:50:31Z</time>
<speed>5.0</speed>
</trkpt>
<trkpt lat="35.906574" lon="139.440522">
<ele>13.6</ele>
<time>2026-03-27T00:50:37Z</time>
<speed>4.9</speed>
</trkpt>
<trkpt lat="35.906558" lon="139.440628">
<ele>13.6</ele>
<time>2026-03-27T00:50:39Z</time>
<speed>4.6</speed>
</trkpt>
<trkpt lat="35.906541" lon="139.440885">
<ele>13.4</ele>
<time>2026-03-27T00:50:44Z</time>
<speed>4.6</speed>
</trkpt>
<trkpt lat="35.906515" lon="139.440983">
<ele>13.2</ele>
<time>2026-03-27T00:50:46Z</time>
<speed>4.6</speed>
</trkpt>
<trkpt lat="35.906455" lon="139.441118">
<ele>13.2</ele>
<time>2026-03-27T00:50:49Z</time>
<speed>4.3</speed>
</trkpt>
<trkpt lat="35.906377" lon="139.441226">
<ele>13.0</ele>
<time>2026-03-27T00:50:52Z</time>
<speed>4.4</speed>
</trkpt>
<trkpt lat="35.906226" lon="139.441381">
<ele>13.0</ele>
<time>2026-03-27T00:50:57Z</time>
<speed>4.4</speed>
</trkpt>
<trkpt lat="35.906187" lon="139.441465">
<ele>13.0</ele>
<time>2026-03-27T00:50:59Z</time>
<speed>3.5</speed>
</trkpt>
<trkpt lat="35.906127" lon="139.441689">
<ele>13.4</ele>
<time>2026-03-27T00:51:05Z</time>
<speed>2.6</speed>
</trkpt>
<trkpt lat="35.906133" lon="139.441717">
<ele>13.4</ele>
<time>2026-03-27T00:51:06Z</time>
<speed>3.5</speed>
</trkpt>
<trkpt lat="35.906178" lon="139.441772">
<ele>13.6</ele>
<time>2026-03-27T00:51:08Z</time>
<speed>4.5</speed>
</trkpt>
<trkpt lat="35.906269" lon="139.441869">
<ele>14.2</ele>
<time>2026-03-27T00:51:11Z</time>
<speed>5.1</speed>
</trkpt>
<trkpt lat="35.906371" lon="139.441982">
<ele>14.8</ele>
<time>2026-03-27T00:51:14Z</time>
<speed>5.6</speed>
</trkpt>
<trkpt lat="35.906409" lon="139.442023">
<ele>15.0</ele>
<time>2026-03-27T00:51:15Z</time>
<speed>5.3</speed>
</trkpt>
<trkpt lat="35.906624" lon="139.442259">
<ele>15.2</ele>
<time>2026-03-27T00:51:21Z</time>
<speed>4.9</speed>
</trkpt>
<trkpt lat="35.906660" lon="139.442290">
<ele>15.2</ele>
<time>2026-03-27T00:51:22Z</time>
<speed>5.2</speed>
</trkpt>
<trkpt lat="35.906950" lon="139.442478">
<ele>15.2</ele>
<time>2026-03-27T00:51:29Z</time>
<speed>5.3</speed>
</trkpt>
<trkpt lat="35.907276" lon="139.442579">
<ele>15.0</ele>
<time>2026-03-27T00:51:36Z</time>
<speed>5.3</speed>
</trkpt>
<trkpt lat="35.907324" lon="139.442578">
<ele>15.0</ele>
<time>2026-03-27T00:51:37Z</time>
<speed>5.2</speed>
</trkpt>
<trkpt lat="35.907653" lon="139.442549">
<ele>15.0</ele>
<time>2026-03-27T00:51:44Z</time>
<speed>5.4</speed>
</trkpt>
<trkpt lat="35.907701" lon="139.442555">
<ele>15.0</ele>
<time>2026-03-27T00:51:45Z</time>
<speed>5.5</speed>
</trkpt>
<trkpt lat="35.907893" lon="139.442619">
<ele>15.0</ele>
<time>2026-03-27T00:51:49Z</time>
<speed>5.6</speed>
</trkpt>
<trkpt lat="35.908278" lon="139.442764">
<ele>15.0</ele>
<time>2026-03-27T00:51:57Z</time>
<speed>5.9</speed>
</trkpt>
<trkpt lat="35.908611" lon="139.442960">
<ele>14.8</ele>
<time>2026-03-27T00:52:04Z</time>
<speed>5.5</speed>
</trkpt>
<trkpt lat="35.908949" lon="139.443219">
<ele>14.6</ele>
<time>2026-03-27T00:52:12Z</time>
<speed>5.9</speed>
</trkpt>
<trkpt lat="35.909397" lon="139.443570">
<ele>14.8</ele>
<time>2026-03-27T00:52:22Z</time>
<speed>5.2</speed>
</trkpt>
<trkpt lat="35.909645" lon="139.443838">
<ele>14.6</ele>
<time>2026-03-27T00:52:29Z</time>
<speed>5.7</speed>
</trkpt>
<trkpt lat="35.909899" lon="139.444230">
<ele>14.6</ele>
<time>2026-03-27T00:52:37Z</time>
<speed>5.7</speed>
</trkpt>
<trkpt lat="35.910006" lon="139.444445">
<ele>14.8</ele>
<time>2026-03-27T00:52:41Z</time>
<speed>6.2</speed>
</trkpt>
<trkpt lat="35.910017" lon="139.444513">
<ele>14.8</ele>
<time>2026-03-27T00:52:42Z</time>
<speed>6.8</speed>
</trkpt>
<trkpt lat="35.909968" lon="139.444810">
<ele>14.8</ele>
<time>2026-03-27T00:52:46Z</time>
<speed>7.9</speed>
</trkpt>
<trkpt lat="35.909892" lon="139.444958">
<ele>14.6</ele>
<time>2026-03-27T00:52:48Z</time>
<speed>7.2</speed>
</trkpt>
<trkpt lat="35.909787" lon="139.445158">
<ele>14.0</ele>
<time>2026-03-27T00:52:51Z</time>
<speed>6.1</speed>
</trkpt>
<trkpt lat="35.909756" lon="139.445214">
<ele>13.6</ele>
<time>2026-03-27T00:52:52Z</time>
<speed>4.5</speed>
</trkpt>
<trkpt lat="35.909692" lon="139.445340">
<ele>12.8</ele>
<time>2026-03-27T00:52:55Z</time>
<speed>3.7</speed>
</trkpt>
<trkpt lat="35.909686" lon="139.445380">
<ele>12.6</ele>
<time>2026-03-27T00:52:56Z</time>
<speed>4.1</speed>
</trkpt>
<trkpt lat="35.909720" lon="139.445460">
<ele>12.2</ele>
<time>2026-03-27T00:52:58Z</time>
<speed>3.9</speed>
</trkpt>
<trkpt lat="35.909907" lon="139.445722">
<ele>11.6</ele>
<time>2026-03-27T00:53:06Z</time>
<speed>3.0</speed>
</trkpt>
<trkpt lat="35.909932" lon="139.445734">
<ele>11.6</ele>
<time>2026-03-27T00:53:07Z</time>
<speed>4.1</speed>
</trkpt>
<trkpt lat="35.909960" lon="139.445704">
<ele>11.4</ele>
<time>2026-03-27T00:53:08Z</time>
<speed>2.3</speed>
</trkpt>
<trkpt lat="35.909981" lon="139.445706">
<ele>11.2</ele>
<time>2026-03-27T00:53:09Z</time>
<speed>2.9</speed>
</trkpt>
<trkpt lat="35.910110" lon="139.445675">
<ele>11.2</ele>
<time>2026-03-27T00:53:14Z</time>
<speed>2.6</speed>
</trkpt>
<trkpt lat="35.910176" lon="139.445592">
<ele>11.2</ele>
<time>2026-03-27T00:53:18Z</time>
<speed>2.6</speed>
</trkpt>
<trkpt lat="35.910199" lon="139.445585">
<ele>11.2</ele>
<time>2026-03-27T00:53:19Z</time>
<speed>3.0</speed>
</trkpt>
<trkpt lat="35.910305" lon="139.445607">
<ele>11.4</ele>
<time>2026-03-27T00:53:23Z</time>
<speed>3.8</speed>
</trkpt>
<trkpt lat="35.910500" lon="139.445687">
<ele>12.0</ele>
<time>2026-03-27T00:53:29Z</time>
<speed>4.1</speed>
</trkpt>
<trkpt lat="35.910720" lon="139.445734">
<ele>12.6</ele>
<time>2026-03-27T00:53:35Z</time>
<speed>4.9</speed>
</trkpt>
<trkpt lat="35.910847" lon="139.445776">
<ele>13.4</ele>
<time>2026-03-27T00:53:38Z</time>
<speed>5.3</speed>
</trkpt>
<trkpt lat="35.910891" lon="139.445798">
<ele>13.6</ele>
<time>2026-03-27T00:53:39Z</time>
<speed>5.2</speed>
</trkpt>
<trkpt lat="35.910975" lon="139.445847">
<ele>14.2</ele>
<time>2026-03-27T00:53:41Z</time>
<speed>4.9</speed>
</trkpt>
<trkpt lat="35.911016" lon="139.445868">
<ele>14.4</ele>
<time>2026-03-27T00:53:42Z</time>
<speed>4.6</speed>
</trkpt>
<trkpt lat="35.911217" lon="139.445937">
<ele>14.6</ele>
<time>2026-03-27T00:53:47Z</time>
<speed>5.4</speed>
</trkpt>
<trkpt lat="35.911548" lon="139.446032">
<ele>14.6</ele>
<time>2026-03-27T00:53:54Z</time>
<speed>5.6</speed>
</trkpt>
<trkpt lat="35.911790" lon="139.446119">
<ele>14.6</ele>
<time>2026-03-27T00:53:59Z</time>
<speed>5.8</speed>
</trkpt>
<trkpt lat="35.911839" lon="139.446142">
<ele>14.6</ele>
<time>2026-03-27T00:54:00Z</time>
<speed>6.1</speed>
</trkpt>
<trkpt lat="35.912166" lon="139.446388">
<ele>14.6</ele>
<time>2026-03-27T00:54:07Z</time>
<speed>6.1</speed>
</trkpt>
<trkpt lat="35.912368" lon="139.446618">
<ele>14.6</ele>
<time>2026-03-27T00:54:12Z</time>
<speed>6.1</speed>
</trkpt>
<trkpt lat="35.912445" lon="139.446713">
<ele>14.6</ele>
<time>2026-03-27T00:54:14Z</time>
<speed>5.7</speed>
</trkpt>
<trkpt lat="35.912690" lon="139.447034">
<ele>14.6</ele>
<time>2026-03-27T00:54:21Z</time>
<speed>5.9</speed>
</trkpt>
<trkpt lat="35.913010" lon="139.447467">
<ele>14.6</ele>
<time>2026-03-27T00:54:30Z</time>
<speed>6.1</speed>
</trkpt>
<trkpt lat="35.913354" lon="139.447907">
<ele>14.4</ele>
<time>2026-03-27T00:54:39Z</time>
<speed>6.3</speed>
</trkpt>
<trkpt lat="35.913694" lon="139.448370">
<ele>14.4</ele>
<time>2026-03-27T00:54:48Z</time>
<speed>6.2</speed>
</trkpt>
<trkpt lat="35.913963" lon="139.448714">
<ele>14.4</ele>
<time>2026-03-27T00:54:55Z</time>
<speed>5.7</speed>
</trkpt>
<trkpt lat="35.914212" lon="139.449030">
<ele>14.4</ele>
<time>2026-03-27T00:55:02Z</time>
<speed>5.8</speed>
</trkpt>
<trkpt lat="35.914500" lon="139.449405">
<ele>14.2</ele>
<time>2026-03-27T00:55:10Z</time>
<speed>6.3</speed>
</trkpt>
<trkpt lat="35.914805" lon="139.449818">
<ele>14.2</ele>
<time>2026-03-27T00:55:18Z</time>
<speed>6.4</speed>
</trkpt>
<trkpt lat="35.915156" lon="139.450288">
<ele>14.2</ele>
<time>2026-03-27T00:55:27Z</time>
<speed>6.0</speed>
</trkpt>
<trkpt lat="35.915230" lon="139.450384">
<ele>14.2</ele>
<time>2026-03-27T00:55:29Z</time>
<speed>6.1</speed>
</trkpt>
<trkpt lat="35.915492" lon="139.450729">
<ele>14.0</ele>
<time>2026-03-27T00:55:36Z</time>
<speed>6.2</speed>
</trkpt>
<trkpt lat="35.915762" lon="139.451080">
<ele>14.0</ele>
<time>2026-03-27T00:55:43Z</time>
<speed>5.9</speed>
</trkpt>
<trkpt lat="35.916058" lon="139.451458">
<ele>14.2</ele>
<time>2026-03-27T00:55:51Z</time>
<speed>5.6</speed>
</trkpt>
<trkpt lat="35.916350" lon="139.451796">
<ele>14.0</ele>
<time>2026-03-27T00:55:59Z</time>
<speed>6.3</speed>
</trkpt>
<trkpt lat="35.916747" lon="139.452186">
<ele>13.8</ele>
<time>2026-03-27T00:56:08Z</time>
<speed>6.2</speed>
</trkpt>
<trkpt lat="35.917155" lon="139.452547">
<ele>13.6</ele>
<time>2026-03-27T00:56:17Z</time>
<speed>6.2</speed>
</trkpt>
<trkpt lat="35.917486" lon="139.452802">
<ele>13.4</ele>
<time>2026-03-27T00:56:24Z</time>
<speed>5.6</speed>
</trkpt>
<trkpt lat="35.917623" lon="139.452882">
<ele>13.2</ele>
<time>2026-03-27T00:56:27Z</time>
<speed>5.0</speed>
</trkpt>
<trkpt lat="35.917711" lon="139.452909">
<ele>13.2</ele>
<time>2026-03-27T00:56:29Z</time>
<speed>3.7</speed>
</trkpt>
<trkpt lat="35.917874" lon="139.452957">
<ele>13.2</ele>
<time>2026-03-27T00:56:34Z</time>
<speed>4.8</speed>
</trkpt>
<trkpt lat="35.918039" lon="139.453013">
<ele>13.0</ele>
<time>2026-03-27T00:56:38Z</time>
<speed>5.8</speed>
</trkpt>
<trkpt lat="35.918187" lon="139.453073">
<ele>12.4</ele>
<time>2026-03-27T00:56:41Z</time>
<speed>5.6</speed>
</trkpt>
<trkpt lat="35.918328" lon="139.453140">
<ele>11.4</ele>
<time>2026-03-27T00:56:44Z</time>
<speed>4.8</speed>
</trkpt>
<trkpt lat="35.918365" lon="139.453168">
<ele>11.0</ele>
<time>2026-03-27T00:56:45Z</time>
<speed>3.6</speed>
</trkpt>
<trkpt lat="35.918415" lon="139.453218">
<ele>10.0</ele>
<time>2026-03-27T00:56:47Z</time>
<speed>3.0</speed>
</trkpt>
<trkpt lat="35.918437" lon="139.453237">
<ele>9.4</ele>
<time>2026-03-27T00:56:48Z</time>
<speed>2.5</speed>
</trkpt>
<trkpt lat="35.918449" lon="139.453260">
<ele>9.2</ele>
<time>2026-03-27T00:56:49Z</time>
<speed>3.0</speed>
</trkpt>
<trkpt lat="35.918460" lon="139.453290">
<ele>9.0</ele>
<time>2026-03-27T00:56:50Z</time>
<speed>3.5</speed>
</trkpt>
<trkpt lat="35.918502" lon="139.453349">
<ele>8.8</ele>
<time>2026-03-27T00:56:52Z</time>
<speed>3.9</speed>
</trkpt>
<trkpt lat="35.918664" lon="139.453433">
<ele>8.8</ele>
<time>2026-03-27T00:56:57Z</time>
<speed>3.7</speed>
</trkpt>
<trkpt lat="35.918859" lon="139.453480">
<ele>8.6</ele>
<time>2026-03-27T00:57:03Z</time>
<speed>3.4</speed>
</trkpt>
<trkpt lat="35.919028" lon="139.453574">
<ele>8.6</ele>
<time>2026-03-27T00:57:09Z</time>
<speed>3.5</speed>
</trkpt>
<trkpt lat="35.919177" lon="139.453643">
<ele>8.6</ele>
<time>2026-03-27T00:57:14Z</time>
<speed>3.3</speed>
</trkpt>
<trkpt lat="35.919259" lon="139.453688">
<ele>8.6</ele>
<time>2026-03-27T00:57:17Z</time>
<speed>1.7</speed>
</trkpt>
<trkpt lat="35.919269" lon="139.453703">
<ele>8.6</ele>
<time>2026-03-27T00:57:18Z</time>
<speed>0.1</speed>
</trkpt>
<trkpt lat="35.919276" lon="139.453719">
<ele>9.8</ele>
<time>2026-03-27T00:57:33Z</time>
<speed>1.9</speed>
</trkpt>
<trkpt lat="35.919176" lon="139.453694">
<ele>9.8</ele>
<time>2026-03-27T00:57:39Z</time>
<speed>2.8</speed>
</trkpt>
<trkpt lat="35.919151" lon="139.453689">
<ele>9.8</ele>
<time>2026-03-27T00:57:40Z</time>
<speed>3.1</speed>
</trkpt>
<trkpt lat="35.919067" lon="139.453674">
<ele>10.0</ele>
<time>2026-03-27T00:57:43Z</time>
<speed>3.2</speed>
</trkpt>
<trkpt lat="35.918983" lon="139.453643">
<ele>10.4</ele>
<time>2026-03-27T00:57:46Z</time>
<speed>3.3</speed>
</trkpt>
<trkpt lat="35.918837" lon="139.453613">
<ele>11.2</ele>
<time>2026-03-27T00:57:51Z</time>
<speed>3.3</speed>
</trkpt>
<trkpt lat="35.918747" lon="139.453609">
<ele>11.6</ele>
<time>2026-03-27T00:57:54Z</time>
<speed>4.2</speed>
</trkpt>
<trkpt lat="35.918637" lon="139.453583">
<ele>12.4</ele>
<time>2026-03-27T00:57:57Z</time>
<speed>4.6</speed>
</trkpt>
<trkpt lat="35.918516" lon="139.453543">
<ele>13.0</ele>
<time>2026-03-27T00:58:00Z</time>
<speed>4.4</speed>
</trkpt>
<trkpt lat="35.918443" lon="139.453507">
<ele>13.4</ele>
<time>2026-03-27T00:58:02Z</time>
<speed>3.4</speed>
</trkpt>
<trkpt lat="35.918373" lon="139.453433">
<ele>13.6</ele>
<time>2026-03-27T00:58:05Z</time>
<speed>3.0</speed>
</trkpt>
<trkpt lat="35.918377" lon="139.453400">
<ele>13.6</ele>
<time>2026-03-27T00:58:06Z</time>
<speed>3.4</speed>
</trkpt>
<trkpt lat="35.918419" lon="139.453301">
<ele>13.8</ele>
<time>2026-03-27T00:58:09Z</time>
<speed>3.9</speed>
</trkpt>
<trkpt lat="35.918473" lon="139.453189">
<ele>13.8</ele>
<time>2026-03-27T00:58:12Z</time>
<speed>4.3</speed>
</trkpt>
<trkpt lat="35.918593" lon="139.452941">
<ele>14.0</ele>
<time>2026-03-27T00:58:18Z</time>
<speed>4.3</speed>
</trkpt>
<trkpt lat="35.918730" lon="139.452650">
<ele>14.2</ele>
<time>2026-03-27T00:58:25Z</time>
<speed>4.6</speed>
</trkpt>
<trkpt lat="35.918915" lon="139.452254">
<ele>14.4</ele>
<time>2026-03-27T00:58:34Z</time>
<speed>4.8</speed>
</trkpt>
<trkpt lat="35.918982" lon="139.452116">
<ele>14.4</ele>
<time>2026-03-27T00:58:37Z</time>
<speed>4.6</speed>
</trkpt>
<trkpt lat="35.919092" lon="139.451899">
<ele>14.4</ele>
<time>2026-03-27T00:58:42Z</time>
<speed>4.2</speed>
</trkpt>
<trkpt lat="35.919222" lon="139.451615">
<ele>14.4</ele>
<time>2026-03-27T00:58:49Z</time>
<speed>4.6</speed>
</trkpt>
<trkpt lat="35.919320" lon="139.451392">
<ele>14.4</ele>
<time>2026-03-27T00:58:54Z</time>
<speed>4.9</speed>
</trkpt>
<trkpt lat="35.919363" lon="139.451298">
<ele>14.4</ele>
<time>2026-03-27T00:58:56Z</time>
<speed>5.0</speed>
</trkpt>
<trkpt lat="35.919546" lon="139.450912">
<ele>14.4</ele>
<time>2026-03-27T00:59:04Z</time>
<speed>4.1</speed>
</trkpt>
<trkpt lat="35.919655" lon="139.450674">
<ele>14.0</ele>
<time>2026-03-27T00:59:10Z</time>
<speed>3.6</speed>
</trkpt>
<trkpt lat="35.919748" lon="139.450510">
<ele>14.0</ele>
<time>2026-03-27T00:59:15Z</time>
<speed>4.2</speed>
</trkpt>
<trkpt lat="35.919882" lon="139.450227">
<ele>13.8</ele>
<time>2026-03-27T00:59:22Z</time>
<speed>2.0</speed>
</trkpt>
<trkpt lat="35.919942" lon="139.450142">
<ele>13.8</ele>
<time>2026-03-27T00:59:27Z</time>
<speed>0.2</speed>
</trkpt>
<trkpt lat="35.919968" lon="139.450089">
<ele>13.2</ele>
<time>2026-03-27T00:59:58Z</time>
<speed>2.4</speed>
</trkpt>
<trkpt lat="35.920001" lon="139.450053">
<ele>13.2</ele>
<time>2026-03-27T01:00:00Z</time>
<speed>3.6</speed>
</trkpt>
<trkpt lat="35.920090" lon="139.450098">
<ele>13.2</ele>
<time>2026-03-27T01:00:03Z</time>
<speed>6.0</speed>
</trkpt>
<trkpt lat="35.920314" lon="139.450285">
<ele>13.2</ele>
<time>2026-03-27T01:00:08Z</time>
<speed>6.9</speed>
</trkpt>
<trkpt lat="35.920624" lon="139.450542">
<ele>12.0</ele>
<time>2026-03-27T01:00:14Z</time>
<speed>6.6</speed>
</trkpt>
<trkpt lat="35.920778" lon="139.450650">
<ele>11.0</ele>
<time>2026-03-27T01:00:17Z</time>
<speed>5.3</speed>
</trkpt>
<trkpt lat="35.920822" lon="139.450672">
<ele>10.6</ele>
<time>2026-03-27T01:00:18Z</time>
<speed>4.1</speed>
</trkpt>
<trkpt lat="35.920857" lon="139.450685">
<ele>10.4</ele>
<time>2026-03-27T01:00:19Z</time>
<speed>3.4</speed>
</trkpt>
<trkpt lat="35.920909" lon="139.450725">
<ele>9.6</ele>
<time>2026-03-27T01:00:21Z</time>
<speed>3.4</speed>
</trkpt>
<trkpt lat="35.920917" lon="139.450800">
<ele>9.0</ele>
<time>2026-03-27T01:00:23Z</time>
<speed>3.7</speed>
</trkpt>
<trkpt lat="35.920914" lon="139.450882">
<ele>8.6</ele>
<time>2026-03-27T01:00:25Z</time>
<speed>3.5</speed>
</trkpt>
<trkpt lat="35.920933" lon="139.450913">
<ele>8.4</ele>
<time>2026-03-27T01:00:26Z</time>
<speed>3.3</speed>
</trkpt>
<trkpt lat="35.921046" lon="139.450957">
<ele>8.2</ele>
<time>2026-03-27T01:00:30Z</time>
<speed>2.0</speed>
</trkpt>
<trkpt lat="35.921099" lon="139.450961">
<ele>8.2</ele>
<time>2026-03-27T01:00:33Z</time>
<speed>1.9</speed>
</trkpt>
<trkpt lat="35.921116" lon="139.450963">
<ele>8.2</ele>
<time>2026-03-27T01:00:34Z</time>
<speed>2.7</speed>
</trkpt>
<trkpt lat="35.921138" lon="139.450976">
<ele>8.2</ele>
<time>2026-03-27T01:00:35Z</time>
<speed>3.2</speed>
</trkpt>
<trkpt lat="35.921160" lon="139.451042">
<ele>8.4</ele>
<time>2026-03-27T01:00:37Z</time>
<speed>3.7</speed>
</trkpt>
<trkpt lat="35.921136" lon="139.451203">
<ele>8.6</ele>
<time>2026-03-27T01:00:41Z</time>
<speed>3.3</speed>
</trkpt>
<trkpt lat="35.921128" lon="139.451238">
<ele>8.6</ele>
<time>2026-03-27T01:00:42Z</time>
<speed>3.4</speed>
</trkpt>
<trkpt lat="35.921162" lon="139.451423">
<ele>8.6</ele>
<time>2026-03-27T01:00:47Z</time>
<speed>3.9</speed>
</trkpt>
<trkpt lat="35.921293" lon="139.451482">
<ele>8.8</ele>
<time>2026-03-27T01:00:51Z</time>
<speed>4.0</speed>
</trkpt>
<trkpt lat="35.921462" lon="139.451553">
<ele>9.6</ele>
<time>2026-03-27T01:00:56Z</time>
<speed>3.6</speed>
</trkpt>
<trkpt lat="35.921575" lon="139.451634">
<ele>10.4</ele>
<time>2026-03-27T01:01:00Z</time>
<speed>3.9</speed>
</trkpt>
<trkpt lat="35.921607" lon="139.451651">
<ele>10.8</ele>
<time>2026-03-27T01:01:01Z</time>
<speed>3.8</speed>
</trkpt>
<trkpt lat="35.921738" lon="139.451693">
<ele>11.8</ele>
<time>2026-03-27T01:01:05Z</time>
<speed>3.6</speed>
</trkpt>
<trkpt lat="35.921769" lon="139.451705">
<ele>12.0</ele>
<time>2026-03-27T01:01:06Z</time>
<speed>4.3</speed>
</trkpt>
<trkpt lat="35.921986" lon="139.451798">
<ele>12.6</ele>
<time>2026-03-27T01:01:12Z</time>
<speed>6.7</speed>
</trkpt>
<trkpt lat="35.922276" lon="139.451906">
<ele>12.6</ele>
<time>2026-03-27T01:01:17Z</time>
<speed>6.9</speed>
</trkpt>
<trkpt lat="35.922394" lon="139.451950">
<ele>12.2</ele>
<time>2026-03-27T01:01:19Z</time>
<speed>5.9</speed>
</trkpt>
<trkpt lat="35.922495" lon="139.451988">
<ele>11.8</ele>
<time>2026-03-27T01:01:21Z</time>
<speed>5.4</speed>
</trkpt>
<trkpt lat="35.922635" lon="139.452042">
<ele>10.4</ele>
<time>2026-03-27T01:01:24Z</time>
<speed>5.2</speed>
</trkpt>
<trkpt lat="35.922681" lon="139.452050">
<ele>10.0</ele>
<time>2026-03-27T01:01:25Z</time>
<speed>4.9</speed>
</trkpt>
<trkpt lat="35.922770" lon="139.452052">
<ele>9.2</ele>
<time>2026-03-27T01:01:27Z</time>
<speed>4.0</speed>
</trkpt>
<trkpt lat="35.922948" lon="139.452063">
<ele>8.0</ele>
<time>2026-03-27T01:01:32Z</time>
<speed>3.9</speed>
</trkpt>
<trkpt lat="35.923194" lon="139.452077">
<ele>7.6</ele>
<time>2026-03-27T01:01:39Z</time>
<speed>4.0</speed>
</trkpt>
<trkpt lat="35.923411" lon="139.452099">
<ele>7.6</ele>
<time>2026-03-27T01:01:45Z</time>
<speed>3.7</speed>
</trkpt>
<trkpt lat="35.923477" lon="139.452112">
<ele>7.6</ele>
<time>2026-03-27T01:01:47Z</time>
<speed>3.4</speed>
</trkpt>
<trkpt lat="35.923657" lon="139.452143">
<ele>7.8</ele>
<time>2026-03-27T01:01:53Z</time>
<speed>3.5</speed>
</trkpt>
<trkpt lat="35.923875" lon="139.452130">
<ele>7.8</ele>
<time>2026-03-27T01:02:00Z</time>
<speed>2.2</speed>
</trkpt>
<trkpt lat="35.923909" lon="139.452105">
<ele>7.8</ele>
<time>2026-03-27T01:02:02Z</time>
<speed>0.3</speed>
</trkpt>
<trkpt lat="35.923912" lon="139.452100">
<ele>7.8</ele>
<time>2026-03-27T01:02:04Z</time>
<speed>0.6</speed>
</trkpt>
<trkpt lat="35.923979" lon="139.451909">
<ele>12.4</ele>
<time>2026-03-27T01:02:37Z</time>
<speed>2.1</speed>
</trkpt>
<trkpt lat="35.924015" lon="139.451893">
<ele>12.4</ele>
<time>2026-03-27T01:02:39Z</time>
<speed>3.1</speed>
</trkpt>
<trkpt lat="35.924151" lon="139.451858">
<ele>12.4</ele>
<time>2026-03-27T01:02:44Z</time>
<speed>4.5</speed>
</trkpt>
<trkpt lat="35.924353" lon="139.451827">
<ele>12.4</ele>
<time>2026-03-27T01:02:49Z</time>
<speed>4.8</speed>
</trkpt>
<trkpt lat="35.924396" lon="139.451824">
<ele>12.4</ele>
<time>2026-03-27T01:02:50Z</time>
<speed>5.4</speed>
</trkpt>
<trkpt lat="35.924735" lon="139.451788">
<ele>12.4</ele>
<time>2026-03-27T01:02:57Z</time>
<speed>5.5</speed>
</trkpt>
<trkpt lat="35.925178" lon="139.451758">
<ele>12.4</ele>
<time>2026-03-27T01:03:06Z</time>
<speed>5.7</speed>
</trkpt>
<trkpt lat="35.925588" lon="139.451744">
<ele>12.0</ele>
<time>2026-03-27T01:03:14Z</time>
<speed>5.6</speed>
</trkpt>
<trkpt lat="35.925991" lon="139.451753">
<ele>12.0</ele>
<time>2026-03-27T01:03:22Z</time>
<speed>5.8</speed>
</trkpt>
<trkpt lat="35.926565" lon="139.451761">
<ele>11.8</ele>
<time>2026-03-27T01:03:33Z</time>
<speed>5.9</speed>
</trkpt>
<trkpt lat="35.926618" lon="139.451762">
<ele>11.8</ele>
<time>2026-03-27T01:03:34Z</time>
<speed>6.1</speed>
</trkpt>
<trkpt lat="35.927166" lon="139.451788">
<ele>11.8</ele>
<time>2026-03-27T01:03:44Z</time>
<speed>5.8</speed>
</trkpt>
<trkpt lat="35.927687" lon="139.451855">
<ele>11.6</ele>
<time>2026-03-27T01:03:54Z</time>
<speed>4.6</speed>
</trkpt>
<trkpt lat="35.927895" lon="139.451871">
<ele>11.6</ele>
<time>2026-03-27T01:03:59Z</time>
<speed>5.1</speed>
</trkpt>
<trkpt lat="35.927939" lon="139.451886">
<ele>11.6</ele>
<time>2026-03-27T01:04:00Z</time>
<speed>5.4</speed>
</trkpt>
<trkpt lat="35.928128" lon="139.451949">
<ele>11.6</ele>
<time>2026-03-27T01:04:04Z</time>
<speed>5.7</speed>
</trkpt>
<trkpt lat="35.928178" lon="139.451965">
<ele>11.6</ele>
<time>2026-03-27T01:04:05Z</time>
<speed>5.5</speed>
</trkpt>
<trkpt lat="35.928617" lon="139.452072">
<ele>11.4</ele>
<time>2026-03-27T01:04:14Z</time>
<speed>5.6</speed>
</trkpt>
<trkpt lat="35.929057" lon="139.452211">
<ele>11.6</ele>
<time>2026-03-27T01:04:23Z</time>
<speed>5.2</speed>
</trkpt>
<trkpt lat="35.929368" lon="139.452337">
<ele>11.6</ele>
<time>2026-03-27T01:04:30Z</time>
<speed>5.5</speed>
</trkpt>
<trkpt lat="35.929741" lon="139.452497">
<ele>11.6</ele>
<time>2026-03-27T01:04:38Z</time>
<speed>2.5</speed>
</trkpt>
<trkpt lat="35.929850" lon="139.452535">
<ele>11.4</ele>
<time>2026-03-27T01:04:43Z</time>
<speed>0.7</speed>
</trkpt>
<trkpt lat="35.929905" lon="139.452560">
<ele>11.4</ele>
<time>2026-03-27T01:04:52Z</time>
<speed>2.5</speed>
</trkpt>
<trkpt lat="35.929920" lon="139.452612">
<ele>11.4</ele>
<time>2026-03-27T01:04:54Z</time>
<speed>3.1</speed>
</trkpt>
<trkpt lat="35.929998" lon="139.452709">
<ele>11.8</ele>
<time>2026-03-27T01:04:58Z</time>
<speed>3.8</speed>
</trkpt>
<trkpt lat="35.930026" lon="139.452734">
<ele>11.8</ele>
<time>2026-03-27T01:04:59Z</time>
<speed>4.8</speed>
</trkpt>
<trkpt lat="35.930152" lon="139.452879">
<ele>12.4</ele>
<time>2026-03-27T01:05:03Z</time>
<speed>5.6</speed>
</trkpt>
<trkpt lat="35.930423" lon="139.453152">
<ele>12.4</ele>
<time>2026-03-27T01:05:10Z</time>
<speed>5.8</speed>
</trkpt>
<trkpt lat="35.930720" lon="139.453513">
<ele>12.0</ele>
<time>2026-03-27T01:05:18Z</time>
<speed>6.0</speed>
</trkpt>
<trkpt lat="35.930988" lon="139.453927">
<ele>11.6</ele>
<time>2026-03-27T01:05:26Z</time>
<speed>6.0</speed>
</trkpt>
<trkpt lat="35.931200" lon="139.454317">
<ele>11.6</ele>
<time>2026-03-27T01:05:33Z</time>
<speed>6.4</speed>
</trkpt>
<trkpt lat="35.931284" lon="139.454502">
<ele>11.6</ele>
<time>2026-03-27T01:05:36Z</time>
<speed>6.4</speed>
</trkpt>
<trkpt lat="35.931374" lon="139.454766">
<ele>11.6</ele>
<time>2026-03-27T01:05:40Z</time>
<speed>6.5</speed>
</trkpt>
<trkpt lat="35.931536" lon="139.455306">
<ele>11.8</ele>
<time>2026-03-27T01:05:48Z</time>
<speed>6.9</speed>
</trkpt>
<trkpt lat="35.931729" lon="139.455948">
<ele>11.6</ele>
<time>2026-03-27T01:05:57Z</time>
<speed>6.7</speed>
</trkpt>
<trkpt lat="35.931959" lon="139.456558">
<ele>11.4</ele>
<time>2026-03-27T01:06:06Z</time>
<speed>6.8</speed>
</trkpt>
<trkpt lat="35.932205" lon="139.457169">
<ele>11.6</ele>
<time>2026-03-27T01:06:15Z</time>
<speed>6.9</speed>
</trkpt>
<trkpt lat="35.932234" lon="139.457237">
<ele>11.6</ele>
<time>2026-03-27T01:06:16Z</time>
<speed>6.8</speed>
</trkpt>
<trkpt lat="35.932458" lon="139.457779">
<ele>11.6</ele>
<time>2026-03-27T01:06:24Z</time>
<speed>6.9</speed>
</trkpt>
<trkpt lat="35.932732" lon="139.458381">
<ele>11.6</ele>
<time>2026-03-27T01:06:33Z</time>
<speed>7.0</speed>
</trkpt>
<trkpt lat="35.932796" lon="139.458514">
<ele>11.4</ele>
<time>2026-03-27T01:06:35Z</time>
<speed>6.8</speed>
</trkpt>
<trkpt lat="35.932862" lon="139.458642">
<ele>11.4</ele>
<time>2026-03-27T01:06:37Z</time>
<speed>7.0</speed>
</trkpt>
<trkpt lat="35.933158" lon="139.459238">
<ele>11.2</ele>
<time>2026-03-27T01:06:46Z</time>
<speed>7.1</speed>
</trkpt>
<trkpt lat="35.933192" lon="139.459305">
<ele>11.2</ele>
<time>2026-03-27T01:06:47Z</time>
<speed>6.6</speed>
</trkpt>
<trkpt lat="35.933498" lon="139.459850">
<ele>10.8</ele>
<time>2026-03-27T01:06:56Z</time>
<speed>4.8</speed>
</trkpt>
<trkpt lat="35.933656" lon="139.460102">
<ele>10.6</ele>
<time>2026-03-27T01:07:02Z</time>
<speed>0.3</speed>
</trkpt>
<trkpt lat="35.933713" lon="139.460182">
<ele>11.4</ele>
<time>2026-03-27T01:07:40Z</time>
<speed>1.6</speed>
</trkpt>
<trkpt lat="35.933720" lon="139.460197">
<ele>11.4</ele>
<time>2026-03-27T01:07:41Z</time>
<speed>1.3</speed>
</trkpt>
<trkpt lat="35.933730" lon="139.460224">
<ele>11.4</ele>
<time>2026-03-27T01:07:43Z</time>
<speed>0.7</speed>
</trkpt>
<trkpt lat="35.933749" lon="139.460262">
<ele>11.6</ele>
<time>2026-03-27T01:07:49Z</time>
<speed>3.3</speed>
</trkpt>
<trkpt lat="35.933764" lon="139.460293">
<ele>11.6</ele>
<time>2026-03-27T01:07:50Z</time>
<speed>4.3</speed>
</trkpt>
<trkpt lat="35.933874" lon="139.460491">
<ele>11.6</ele>
<time>2026-03-27T01:07:55Z</time>
<speed>4.8</speed>
</trkpt>
<trkpt lat="35.933926" lon="139.460575">
<ele>11.6</ele>
<time>2026-03-27T01:07:57Z</time>
<speed>4.8</speed>
</trkpt>
<trkpt lat="35.933978" lon="139.460661">
<ele>11.4</ele>
<time>2026-03-27T01:07:59Z</time>
<speed>4.9</speed>
</trkpt>
<trkpt lat="35.934024" lon="139.460754">
<ele>11.2</ele>
<time>2026-03-27T01:08:01Z</time>
<speed>5.2</speed>
</trkpt>
<trkpt lat="35.934053" lon="139.460799">
<ele>11.0</ele>
<time>2026-03-27T01:08:02Z</time>
<speed>5.4</speed>
</trkpt>
<trkpt lat="35.934172" lon="139.460987">
<ele>11.0</ele>
<time>2026-03-27T01:08:06Z</time>
<speed>6.1</speed>
</trkpt>
<trkpt lat="35.934459" lon="139.461399">
<ele>10.4</ele>
<time>2026-03-27T01:08:14Z</time>
<speed>6.1</speed>
</trkpt>
<trkpt lat="35.934530" lon="139.461501">
<ele>10.4</ele>
<time>2026-03-27T01:08:16Z</time>
<speed>6.4</speed>
</trkpt>
<trkpt lat="35.934779" lon="139.461801">
<ele>10.2</ele>
<time>2026-03-27T01:08:22Z</time>
<speed>6.3</speed>
</trkpt>
<trkpt lat="35.935148" lon="139.462127">
<ele>10.0</ele>
<time>2026-03-27T01:08:30Z</time>
<speed>6.4</speed>
</trkpt>
<trkpt lat="35.935511" lon="139.462342">
<ele>10.0</ele>
<time>2026-03-27T01:08:37Z</time>
<speed>6.5</speed>
</trkpt>
<trkpt lat="35.935956" lon="139.462530">
<ele>9.8</ele>
<time>2026-03-27T01:08:45Z</time>
<speed>6.3</speed>
</trkpt>
<trkpt lat="35.936445" lon="139.462705">
<ele>9.6</ele>
<time>2026-03-27T01:08:54Z</time>
<speed>6.5</speed>
</trkpt>
<trkpt lat="35.936956" lon="139.462858">
<ele>9.4</ele>
<time>2026-03-27T01:09:03Z</time>
<speed>6.6</speed>
</trkpt>
<trkpt lat="35.937518" lon="139.463079">
<ele>9.4</ele>
<time>2026-03-27T01:09:13Z</time>
<speed>6.5</speed>
</trkpt>
<trkpt lat="35.937572" lon="139.463107">
<ele>9.4</ele>
<time>2026-03-27T01:09:14Z</time>
<speed>6.5</speed>
</trkpt>
<trkpt lat="35.938108" lon="139.463395">
<ele>9.2</ele>
<time>2026-03-27T01:09:24Z</time>
<speed>6.4</speed>
</trkpt>
<trkpt lat="35.938573" lon="139.463680">
<ele>9.0</ele>
<time>2026-03-27T01:09:33Z</time>
<speed>6.4</speed>
</trkpt>
<trkpt lat="35.939082" lon="139.464005">
<ele>9.0</ele>
<time>2026-03-27T01:09:43Z</time>
<speed>6.3</speed>
</trkpt>
<trkpt lat="35.939132" lon="139.464037">
<ele>9.0</ele>
<time>2026-03-27T01:09:44Z</time>
<speed>6.6</speed>
</trkpt>
<trkpt lat="35.939647" lon="139.464397">
<ele>8.8</ele>
<time>2026-03-27T01:09:54Z</time>
<speed>6.8</speed>
</trkpt>
<trkpt lat="35.939698" lon="139.464439">
<ele>8.8</ele>
<time>2026-03-27T01:09:55Z</time>
<speed>6.6</speed>
</trkpt>
<trkpt lat="35.940048" lon="139.464715">
<ele>8.8</ele>
<time>2026-03-27T01:10:02Z</time>
<speed>6.4</speed>
</trkpt>
<trkpt lat="35.940194" lon="139.464828">
<ele>8.8</ele>
<time>2026-03-27T01:10:05Z</time>
<speed>6.6</speed>
</trkpt>
<trkpt lat="35.940446" lon="139.465020">
<ele>8.6</ele>
<time>2026-03-27T01:10:10Z</time>
<speed>6.7</speed>
</trkpt>
<trkpt lat="35.940924" lon="139.465333">
<ele>8.6</ele>
<time>2026-03-27T01:10:19Z</time>
<speed>6.7</speed>
</trkpt>
<trkpt lat="35.940979" lon="139.465364">
<ele>8.4</ele>
<time>2026-03-27T01:10:20Z</time>
<speed>6.5</speed>
</trkpt>
<trkpt lat="35.941415" lon="139.465578">
<ele>8.4</ele>
<time>2026-03-27T01:10:28Z</time>
<speed>5.4</speed>
</trkpt>
<trkpt lat="35.941736" lon="139.465710">
<ele>8.4</ele>
<time>2026-03-27T01:10:35Z</time>
<speed>2.0</speed>
</trkpt>
<trkpt lat="35.941807" lon="139.465732">
<ele>8.6</ele>
<time>2026-03-27T01:10:39Z</time>
<speed>0.3</speed>
</trkpt>
<trkpt lat="35.941855" lon="139.465755">
<ele>10.0</ele>
<time>2026-03-27T01:10:58Z</time>
<speed>3.0</speed>
</trkpt>
<trkpt lat="35.941905" lon="139.465778">
<ele>10.0</ele>
<time>2026-03-27T01:11:00Z</time>
<speed>4.3</speed>
</trkpt>
<trkpt lat="35.942094" lon="139.465822">
<ele>10.0</ele>
<time>2026-03-27T01:11:05Z</time>
<speed>5.6</speed>
</trkpt>
<trkpt lat="35.942443" lon="139.465888">
<ele>9.6</ele>
<time>2026-03-27T01:11:12Z</time>
<speed>6.2</speed>
</trkpt>
<trkpt lat="35.942830" lon="139.465947">
<ele>9.0</ele>
<time>2026-03-27T01:11:19Z</time>
<speed>6.2</speed>
</trkpt>
<trkpt lat="35.943164" lon="139.465997">
<ele>8.2</ele>
<time>2026-03-27T01:11:25Z</time>
<speed>6.4</speed>
</trkpt>
<trkpt lat="35.943335" lon="139.466013">
<ele>8.2</ele>
<time>2026-03-27T01:11:28Z</time>
<speed>6.4</speed>
</trkpt>
<trkpt lat="35.943852" lon="139.466073">
<ele>8.2</ele>
<time>2026-03-27T01:11:37Z</time>
<speed>6.6</speed>
</trkpt>
<trkpt lat="35.944320" lon="139.466145">
<ele>8.0</ele>
<time>2026-03-27T01:11:45Z</time>
<speed>6.7</speed>
</trkpt>
<trkpt lat="35.944736" lon="139.466223">
<ele>8.0</ele>
<time>2026-03-27T01:11:52Z</time>
<speed>6.6</speed>
</trkpt>
<trkpt lat="35.945267" lon="139.466323">
<ele>7.8</ele>
<time>2026-03-27T01:12:01Z</time>
<speed>6.4</speed>
</trkpt>
<trkpt lat="35.945841" lon="139.466414">
<ele>7.8</ele>
<time>2026-03-27T01:12:11Z</time>
<speed>6.2</speed>
</trkpt>
<trkpt lat="35.946399" lon="139.466477">
<ele>8.0</ele>
<time>2026-03-27T01:12:21Z</time>
<speed>6.3</speed>
</trkpt>
<trkpt lat="35.946456" lon="139.466481">
<ele>8.0</ele>
<time>2026-03-27T01:12:22Z</time>
<speed>6.5</speed>
</trkpt>
<trkpt lat="35.946925" lon="139.466505">
<ele>8.0</ele>
<time>2026-03-27T01:12:30Z</time>
<speed>6.5</speed>
</trkpt>
<trkpt lat="35.947391" lon="139.466520">
<ele>8.0</ele>
<time>2026-03-27T01:12:38Z</time>
<speed>6.6</speed>
</trkpt>
<trkpt lat="35.947866" lon="139.466482">
<ele>8.0</ele>
<time>2026-03-27T01:12:46Z</time>
<speed>6.6</speed>
</trkpt>
<trkpt lat="35.948401" lon="139.466411">
<ele>8.2</ele>
<time>2026-03-27T01:12:55Z</time>
<speed>6.7</speed>
</trkpt>
<trkpt lat="35.948940" lon="139.466332">
<ele>8.2</ele>
<time>2026-03-27T01:13:04Z</time>
<speed>6.8</speed>
</trkpt>
<trkpt lat="35.949430" lon="139.466306">
<ele>8.2</ele>
<time>2026-03-27T01:13:12Z</time>
<speed>6.9</speed>
</trkpt>
<trkpt lat="35.949990" lon="139.466318">
<ele>8.0</ele>
<time>2026-03-27T01:13:21Z</time>
<speed>7.2</speed>
</trkpt>
<trkpt lat="35.950055" lon="139.466322">
<ele>8.0</ele>
<time>2026-03-27T01:13:22Z</time>
<speed>7.0</speed>
</trkpt>
<trkpt lat="35.950616" lon="139.466387">
<ele>8.0</ele>
<time>2026-03-27T01:13:31Z</time>
<speed>7.1</speed>
</trkpt>
<trkpt lat="35.950679" lon="139.466396">
<ele>7.8</ele>
<time>2026-03-27T01:13:32Z</time>
<speed>6.9</speed>
</trkpt>
<trkpt lat="35.951238" lon="139.466450">
<ele>7.8</ele>
<time>2026-03-27T01:13:41Z</time>
<speed>6.2</speed>
</trkpt>
<trkpt lat="35.951628" lon="139.466471">
<ele>7.6</ele>
<time>2026-03-27T01:13:48Z</time>
<speed>6.4</speed>
</trkpt>
<trkpt lat="35.952144" lon="139.466488">
<ele>7.6</ele>
<time>2026-03-27T01:13:57Z</time>
<speed>6.5</speed>
</trkpt>
<trkpt lat="35.952668" lon="139.466504">
<ele>7.4</ele>
<time>2026-03-27T01:14:06Z</time>
<speed>6.6</speed>
</trkpt>
<trkpt lat="35.953141" lon="139.466559">
<ele>7.4</ele>
<time>2026-03-27T01:14:14Z</time>
<speed>6.6</speed>
</trkpt>
<trkpt lat="35.953612" lon="139.466662">
<ele>7.2</ele>
<time>2026-03-27T01:14:22Z</time>
<speed>6.7</speed>
</trkpt>
<trkpt lat="35.954142" lon="139.466804">
<ele>7.2</ele>
<time>2026-03-27T01:14:31Z</time>
<speed>6.3</speed>
</trkpt>
<trkpt lat="35.954583" lon="139.466951">
<ele>7.2</ele>
<time>2026-03-27T01:14:39Z</time>
<speed>6.0</speed>
</trkpt>
<trkpt lat="35.955092" lon="139.467167">
<ele>7.2</ele>
<time>2026-03-27T01:14:49Z</time>
<speed>6.1</speed>
</trkpt>
<trkpt lat="35.955427" lon="139.467402">
<ele>7.2</ele>
<time>2026-03-27T01:14:56Z</time>
<speed>6.3</speed>
</trkpt>
<trkpt lat="35.955755" lon="139.467680">
<ele>7.4</ele>
<time>2026-03-27T01:15:03Z</time>
<speed>6.7</speed>
</trkpt>
<trkpt lat="35.956124" lon="139.468060">
<ele>7.4</ele>
<time>2026-03-27T01:15:11Z</time>
<speed>6.6</speed>
</trkpt>
<trkpt lat="35.956403" lon="139.468445">
<ele>7.4</ele>
<time>2026-03-27T01:15:18Z</time>
<speed>6.1</speed>
</trkpt>
<trkpt lat="35.956442" lon="139.468492">
<ele>7.4</ele>
<time>2026-03-27T01:15:19Z</time>
<speed>6.1</speed>
</trkpt>
<trkpt lat="35.956585" lon="139.468697">
<ele>7.4</ele>
<time>2026-03-27T01:15:23Z</time>
<speed>6.1</speed>
</trkpt>
<trkpt lat="35.956880" lon="139.469187">
<ele>7.2</ele>
<time>2026-03-27T01:15:32Z</time>
<speed>6.4</speed>
</trkpt>
<trkpt lat="35.957135" lon="139.469665">
<ele>7.2</ele>
<time>2026-03-27T01:15:40Z</time>
<speed>6.3</speed>
</trkpt>
<trkpt lat="35.957340" lon="139.470088">
<ele>7.2</ele>
<time>2026-03-27T01:15:47Z</time>
<speed>6.5</speed>
</trkpt>
<trkpt lat="35.957593" lon="139.470656">
<ele>7.2</ele>
<time>2026-03-27T01:15:56Z</time>
<speed>6.8</speed>
</trkpt>
<trkpt lat="35.957779" lon="139.471132">
<ele>7.0</ele>
<time>2026-03-27T01:16:03Z</time>
<speed>7.0</speed>
</trkpt>
<trkpt lat="35.957925" lon="139.471562">
<ele>7.0</ele>
<time>2026-03-27T01:16:09Z</time>
<speed>6.3</speed>
</trkpt>
<trkpt lat="35.958041" lon="139.472034">
<ele>6.8</ele>
<time>2026-03-27T01:16:16Z</time>
<speed>5.1</speed>
</trkpt>
<trkpt lat="35.958125" lon="139.472479">
<ele>7.0</ele>
<time>2026-03-27T01:16:24Z</time>
<speed>3.9</speed>
</trkpt>
<trkpt lat="35.958125" lon="139.472694">
<ele>7.0</ele>
<time>2026-03-27T01:16:29Z</time>
<speed>2.3</speed>
</trkpt>
<trkpt lat="35.958135" lon="139.472716">
<ele>7.2</ele>
<time>2026-03-27T01:16:30Z</time>
<speed>1.3</speed>
</trkpt>
<trkpt lat="35.958158" lon="139.472712">
<ele>7.4</ele>
<time>2026-03-27T01:16:32Z</time>
<speed>2.5</speed>
</trkpt>
<trkpt lat="35.958201" lon="139.472700">
<ele>8.0</ele>
<time>2026-03-27T01:16:34Z</time>
<speed>3.4</speed>
</trkpt>
<trkpt lat="35.958262" lon="139.472690">
<ele>8.2</ele>
<time>2026-03-27T01:16:36Z</time>
<speed>4.3</speed>
</trkpt>
<trkpt lat="35.958299" lon="139.472678">
<ele>8.4</ele>
<time>2026-03-27T01:16:37Z</time>
<speed>4.5</speed>
</trkpt>
<trkpt lat="35.958497" lon="139.472624">
<ele>9.4</ele>
<time>2026-03-27T01:16:42Z</time>
<speed>4.9</speed>
</trkpt>
<trkpt lat="35.958585" lon="139.472609">
<ele>9.6</ele>
<time>2026-03-27T01:16:44Z</time>
<speed>5.1</speed>
</trkpt>
<trkpt lat="35.958764" lon="139.472565">
<ele>9.6</ele>
<time>2026-03-27T01:16:48Z</time>
<speed>5.4</speed>
</trkpt>
<trkpt lat="35.958955" lon="139.472518">
<ele>9.6</ele>
<time>2026-03-27T01:16:52Z</time>
<speed>4.6</speed>
</trkpt>
<trkpt lat="35.959282" lon="139.472438">
<ele>9.6</ele>
<time>2026-03-27T01:17:00Z</time>
<speed>4.9</speed>
</trkpt>
<trkpt lat="35.959499" lon="139.472384">
<ele>9.6</ele>
<time>2026-03-27T01:17:05Z</time>
<speed>5.2</speed>
</trkpt>
<trkpt lat="35.959916" lon="139.472291">
<ele>9.6</ele>
<time>2026-03-27T01:17:14Z</time>
<speed>5.9</speed>
</trkpt>
<trkpt lat="35.960282" lon="139.472212">
<ele>9.8</ele>
<time>2026-03-27T01:17:21Z</time>
<speed>5.8</speed>
</trkpt>
<trkpt lat="35.960689" lon="139.472114">
<ele>9.8</ele>
<time>2026-03-27T01:17:29Z</time>
<speed>5.7</speed>
</trkpt>
<trkpt lat="35.961142" lon="139.472008">
<ele>9.6</ele>
<time>2026-03-27T01:17:38Z</time>
<speed>3.8</speed>
</trkpt>
<trkpt lat="35.961341" lon="139.471960">
<ele>9.6</ele>
<time>2026-03-27T01:17:44Z</time>
<speed>2.7</speed>
</trkpt>
<trkpt lat="35.961351" lon="139.471871">
<ele>9.6</ele>
<time>2026-03-27T01:17:47Z</time>
<speed>5.1</speed>
</trkpt>
<trkpt lat="35.961329" lon="139.471647">
<ele>9.6</ele>
<time>2026-03-27T01:17:51Z</time>
<speed>5.5</speed>
</trkpt>
<trkpt lat="35.961279" lon="139.471410">
<ele>9.2</ele>
<time>2026-03-27T01:17:55Z</time>
<speed>4.2</speed>
</trkpt>
<trkpt lat="35.961262" lon="139.471320">
<ele>8.8</ele>
<time>2026-03-27T01:17:57Z</time>
<speed>4.0</speed>
</trkpt>
<trkpt lat="35.961294" lon="139.471240">
<ele>8.4</ele>
<time>2026-03-27T01:17:59Z</time>
<speed>4.6</speed>
</trkpt>
<trkpt lat="35.961335" lon="139.471244">
<ele>8.2</ele>
<time>2026-03-27T01:18:00Z</time>
<speed>5.0</speed>
</trkpt>
<trkpt lat="35.961383" lon="139.471339">
<ele>7.4</ele>
<time>2026-03-27T01:18:02Z</time>
<speed>6.1</speed>
</trkpt>
<trkpt lat="35.961401" lon="139.471403">
<ele>6.6</ele>
<time>2026-03-27T01:18:03Z</time>
<speed>6.5</speed>
</trkpt>
<trkpt lat="35.961419" lon="139.471472">
<ele>6.2</ele>
<time>2026-03-27T01:18:04Z</time>
<speed>6.3</speed>
</trkpt>
<trkpt lat="35.961440" lon="139.471610">
<ele>5.4</ele>
<time>2026-03-27T01:18:06Z</time>
<speed>5.4</speed>
</trkpt>
<trkpt lat="35.961495" lon="139.471775">
<ele>4.2</ele>
<time>2026-03-27T01:18:09Z</time>
<speed>4.0</speed>
</trkpt>
<trkpt lat="35.961528" lon="139.471793">
<ele>4.0</ele>
<time>2026-03-27T01:18:10Z</time>
<speed>4.7</speed>
</trkpt>
<trkpt lat="35.961603" lon="139.471743">
<ele>3.6</ele>
<time>2026-03-27T01:18:12Z</time>
<speed>5.2</speed>
</trkpt>
<trkpt lat="35.961644" lon="139.471715">
<ele>3.2</ele>
<time>2026-03-27T01:18:13Z</time>
<speed>5.3</speed>
</trkpt>
<trkpt lat="35.961935" lon="139.471514">
<ele>2.4</ele>
<time>2026-03-27T01:18:20Z</time>
<speed>5.7</speed>
</trkpt>
<trkpt lat="35.961975" lon="139.471475">
<ele>2.4</ele>
<time>2026-03-27T01:18:21Z</time>
<speed>5.6</speed>
</trkpt>
<trkpt lat="35.962134" lon="139.471325">
<ele>2.2</ele>
<time>2026-03-27T01:18:25Z</time>
<speed>4.0</speed>
</trkpt>
<trkpt lat="35.962164" lon="139.471300">
<ele>2.2</ele>
<time>2026-03-27T01:18:26Z</time>
<speed>3.1</speed>
</trkpt>
<trkpt lat="35.962220" lon="139.471293">
<ele>1.8</ele>
<time>2026-03-27T01:18:28Z</time>
<speed>3.5</speed>
</trkpt>
<trkpt lat="35.962243" lon="139.471319">
<ele>1.8</ele>
<time>2026-03-27T01:18:29Z</time>
<speed>4.0</speed>
</trkpt>
<trkpt lat="35.962332" lon="139.471460">
<ele>1.4</ele>
<time>2026-03-27T01:18:33Z</time>
<speed>5.1</speed>
</trkpt>
<trkpt lat="35.962410" lon="139.471600">
<ele>1.4</ele>
<time>2026-03-27T01:18:36Z</time>
<speed>5.0</speed>
</trkpt>
<trkpt lat="35.962464" lon="139.471752">
<ele>1.4</ele>
<time>2026-03-27T01:18:39Z</time>
<speed>4.1</speed>
</trkpt>
<trkpt lat="35.962518" lon="139.472014">
<ele>1.4</ele>
<time>2026-03-27T01:18:45Z</time>
<speed>3.5</speed>
</trkpt>
<trkpt lat="35.962496" lon="139.472042">
<ele>1.4</ele>
<time>2026-03-27T01:18:46Z</time>
<speed>3.9</speed>
</trkpt>
<trkpt lat="35.962394" lon="139.472072">
<ele>1.2</ele>
<time>2026-03-27T01:18:49Z</time>
<speed>3.9</speed>
</trkpt>
<trkpt lat="35.962359" lon="139.472076">
<ele>1.2</ele>
<time>2026-03-27T01:18:50Z</time>
<speed>3.9</speed>
</trkpt>
<trkpt lat="35.962184" lon="139.472096">
<ele>1.4</ele>
<time>2026-03-27T01:18:55Z</time>
<speed>4.0</speed>
</trkpt>
<trkpt lat="35.962043" lon="139.472118">
<ele>1.8</ele>
<time>2026-03-27T01:18:59Z</time>
<speed>4.0</speed>
</trkpt>
<trkpt lat="35.961864" lon="139.472141">
<ele>3.6</ele>
<time>2026-03-27T01:19:04Z</time>
<speed>4.0</speed>
</trkpt>
<trkpt lat="35.961755" lon="139.472148">
<ele>4.6</ele>
<time>2026-03-27T01:19:07Z</time>
<speed>3.9</speed>
</trkpt>
<trkpt lat="35.961686" lon="139.472162">
<ele>5.2</ele>
<time>2026-03-27T01:19:09Z</time>
<speed>3.9</speed>
</trkpt>
<trkpt lat="35.961616" lon="139.472175">
<ele>5.8</ele>
<time>2026-03-27T01:19:11Z</time>
<speed>3.7</speed>
</trkpt>
<trkpt lat="35.961516" lon="139.472190">
<ele>7.0</ele>
<time>2026-03-27T01:19:14Z</time>
<speed>3.8</speed>
</trkpt>
<trkpt lat="35.961488" lon="139.472215">
<ele>7.8</ele>
<time>2026-03-27T01:19:15Z</time>
<speed>4.0</speed>
</trkpt>
<trkpt lat="35.961470" lon="139.472253">
<ele>8.0</ele>
<time>2026-03-27T01:19:16Z</time>
<speed>4.4</speed>
</trkpt>
<trkpt lat="35.961473" lon="139.472401">
<ele>8.6</ele>
<time>2026-03-27T01:19:19Z</time>
<speed>5.0</speed>
</trkpt>
<trkpt lat="35.961482" lon="139.472455">
<ele>8.6</ele>
<time>2026-03-27T01:19:20Z</time>
<speed>5.7</speed>
</trkpt>
<trkpt lat="35.961517" lon="139.472703">
<ele>8.6</ele>
<time>2026-03-27T01:19:24Z</time>
<speed>4.8</speed>
</trkpt>
<trkpt lat="35.961520" lon="139.472756">
<ele>8.6</ele>
<time>2026-03-27T01:19:25Z</time>
<speed>2.3</speed>
</trkpt>
<trkpt lat="35.961522" lon="139.472856">
<ele>8.4</ele>
<time>2026-03-27T01:19:29Z</time>
<speed>0.0</speed>
</trkpt>
<trkpt lat="35.961530" lon="139.472887">
<ele>8.4</ele>
<time>2026-03-27T01:26:39Z</time>
<speed>2.2</speed>
</trkpt>
<trkpt lat="35.961532" lon="139.472911">
<ele>8.4</ele>
<time>2026-03-27T01:26:40Z</time>
<speed>2.8</speed>
</trkpt>
<trkpt lat="35.961540" lon="139.472940">
<ele>8.4</ele>
<time>2026-03-27T01:26:41Z</time>
<speed>3.0</speed>
</trkpt>
<trkpt lat="35.961543" lon="139.473143">
<ele>8.4</ele>
<time>2026-03-27T01:26:47Z</time>
<speed>4.2</speed>
</trkpt>
<trkpt lat="35.961574" lon="139.473420">
<ele>8.0</ele>
<time>2026-03-27T01:26:53Z</time>
<speed>4.7</speed>
</trkpt>
<trkpt lat="35.961648" lon="139.473721">
<ele>8.0</ele>
<time>2026-03-27T01:26:59Z</time>
<speed>4.4</speed>
</trkpt>
<trkpt lat="35.961666" lon="139.473764">
<ele>8.0</ele>
<time>2026-03-27T01:27:00Z</time>
<speed>5.0</speed>
</trkpt>
<trkpt lat="35.961680" lon="139.473817">
<ele>8.0</ele>
<time>2026-03-27T01:27:01Z</time>
<speed>5.1</speed>
</trkpt>
<trkpt lat="35.961765" lon="139.474079">
<ele>7.8</ele>
<time>2026-03-27T01:27:06Z</time>
<speed>5.8</speed>
</trkpt>
<trkpt lat="35.961926" lon="139.474551">
<ele>7.8</ele>
<time>2026-03-27T01:27:14Z</time>
<speed>6.1</speed>
</trkpt>
<trkpt lat="35.962031" lon="139.475004">
<ele>7.8</ele>
<time>2026-03-27T01:27:21Z</time>
<speed>5.8</speed>
</trkpt>
<trkpt lat="35.962087" lon="139.475517">
<ele>7.6</ele>
<time>2026-03-27T01:27:29Z</time>
<speed>6.2</speed>
</trkpt>
<trkpt lat="35.962053" lon="139.475929">
<ele>7.6</ele>
<time>2026-03-27T01:27:35Z</time>
<speed>6.2</speed>
</trkpt>
<trkpt lat="35.961955" lon="139.476324">
<ele>7.6</ele>
<time>2026-03-27T01:27:41Z</time>
<speed>6.3</speed>
</trkpt>
<trkpt lat="35.961927" lon="139.476385">
<ele>7.6</ele>
<time>2026-03-27T01:27:42Z</time>
<speed>5.9</speed>
</trkpt>
<trkpt lat="35.961833" lon="139.476618">
<ele>7.6</ele>
<time>2026-03-27T01:27:46Z</time>
<speed>5.4</speed>
</trkpt>
<trkpt lat="35.961726" lon="139.476885">
<ele>7.6</ele>
<time>2026-03-27T01:27:51Z</time>
<speed>5.8</speed>
</trkpt>
<trkpt lat="35.961697" lon="139.476939">
<ele>7.6</ele>
<time>2026-03-27T01:27:52Z</time>
<speed>5.8</speed>
</trkpt>
<trkpt lat="35.961405" lon="139.477398">
<ele>7.6</ele>
<time>2026-03-27T01:28:01Z</time>
<speed>6.0</speed>
</trkpt>
<trkpt lat="35.961168" lon="139.477761">
<ele>7.6</ele>
<time>2026-03-27T01:28:08Z</time>
<speed>6.3</speed>
</trkpt>
<trkpt lat="35.960840" lon="139.478243">
<ele>7.4</ele>
<time>2026-03-27T01:28:17Z</time>
<speed>6.4</speed>
</trkpt>
<trkpt lat="35.960552" lon="139.478771">
<ele>7.2</ele>
<time>2026-03-27T01:28:26Z</time>
<speed>6.4</speed>
</trkpt>
<trkpt lat="35.960328" lon="139.479273">
<ele>7.2</ele>
<time>2026-03-27T01:28:34Z</time>
<speed>6.3</speed>
</trkpt>
<trkpt lat="35.960102" lon="139.479918">
<ele>7.2</ele>
<time>2026-03-27T01:28:44Z</time>
<speed>6.3</speed>
</trkpt>
<trkpt lat="35.959930" lon="139.480438">
<ele>7.2</ele>
<time>2026-03-27T01:28:52Z</time>
<speed>6.3</speed>
</trkpt>
<trkpt lat="35.959796" lon="139.480975">
<ele>7.2</ele>
<time>2026-03-27T01:29:00Z</time>
<speed>6.4</speed>
</trkpt>
<trkpt lat="35.959761" lon="139.481327">
<ele>7.2</ele>
<time>2026-03-27T01:29:05Z</time>
<speed>6.2</speed>
</trkpt>
<trkpt lat="35.959767" lon="139.481464">
<ele>7.2</ele>
<time>2026-03-27T01:29:07Z</time>
<speed>4.0</speed>
</trkpt>
<trkpt lat="35.959791" lon="139.481638">
<ele>7.2</ele>
<time>2026-03-27T01:29:11Z</time>
<speed>2.1</speed>
</trkpt>
<trkpt lat="35.959797" lon="139.481755">
<ele>7.2</ele>
<time>2026-03-27T01:29:16Z</time>
<speed>2.5</speed>
</trkpt>
<trkpt lat="35.959800" lon="139.481953">
<ele>7.4</ele>
<time>2026-03-27T01:29:23Z</time>
<speed>2.8</speed>
</trkpt>
<trkpt lat="35.959811" lon="139.482261">
<ele>7.6</ele>
<time>2026-03-27T01:29:33Z</time>
<speed>3.0</speed>
</trkpt>
<trkpt lat="35.959822" lon="139.482557">
<ele>7.6</ele>
<time>2026-03-27T01:29:42Z</time>
<speed>2.7</speed>
</trkpt>
<trkpt lat="35.959814" lon="139.482800">
<ele>7.6</ele>
<time>2026-03-27T01:29:50Z</time>
<speed>3.1</speed>
</trkpt>
<trkpt lat="35.959822" lon="139.483009">
<ele>7.6</ele>
<time>2026-03-27T01:29:56Z</time>
<speed>3.6</speed>
</trkpt>
<trkpt lat="35.959827" lon="139.483287">
<ele>7.6</ele>
<time>2026-03-27T01:30:03Z</time>
<speed>3.7</speed>
</trkpt>
<trkpt lat="35.959838" lon="139.483619">
<ele>7.4</ele>
<time>2026-03-27T01:30:11Z</time>
<speed>3.6</speed>
</trkpt>
<trkpt lat="35.959867" lon="139.483975">
<ele>7.4</ele>
<time>2026-03-27T01:30:20Z</time>
<speed>3.6</speed>
</trkpt>
<trkpt lat="35.959883" lon="139.484258">
<ele>7.4</ele>
<time>2026-03-27T01:30:27Z</time>
<speed>5.0</speed>
</trkpt>
<trkpt lat="35.959925" lon="139.484703">
<ele>7.8</ele>
<time>2026-03-27T01:30:35Z</time>
<speed>5.9</speed>
</trkpt>
<trkpt lat="35.959973" lon="139.485220">
<ele>7.8</ele>
<time>2026-03-27T01:30:43Z</time>
<speed>6.3</speed>
</trkpt>
<trkpt lat="35.960027" lon="139.485773">
<ele>7.8</ele>
<time>2026-03-27T01:30:51Z</time>
<speed>6.4</speed>
</trkpt>
<trkpt lat="35.960077" lon="139.486483">
<ele>7.6</ele>
<time>2026-03-27T01:31:01Z</time>
<speed>6.4</speed>
</trkpt>
<trkpt lat="35.960093" lon="139.486624">
<ele>7.6</ele>
<time>2026-03-27T01:31:03Z</time>
<speed>6.3</speed>
</trkpt>
<trkpt lat="35.960110" lon="139.487113">
<ele>7.8</ele>
<time>2026-03-27T01:31:10Z</time>
<speed>6.5</speed>
</trkpt>
<trkpt lat="35.960111" lon="139.487622">
<ele>7.8</ele>
<time>2026-03-27T01:31:17Z</time>
<speed>6.6</speed>
</trkpt>
<trkpt lat="35.960098" lon="139.488064">
<ele>7.8</ele>
<time>2026-03-27T01:31:23Z</time>
<speed>2.3</speed>
</trkpt>
<trkpt lat="35.960106" lon="139.488166">
<ele>7.8</ele>
<time>2026-03-27T01:31:27Z</time>
<speed>0.3</speed>
</trkpt>
<trkpt lat="35.960102" lon="139.488224">
<ele>10.2</ele>
<time>2026-03-27T01:31:42Z</time>
<speed>2.6</speed>
</trkpt>
<trkpt lat="35.960098" lon="139.488253">
<ele>10.2</ele>
<time>2026-03-27T01:31:43Z</time>
<speed>4.6</speed>
</trkpt>
<trkpt lat="35.960090" lon="139.488511">
<ele>10.4</ele>
<time>2026-03-27T01:31:48Z</time>
<speed>6.0</speed>
</trkpt>
<trkpt lat="35.960065" lon="139.488909">
<ele>10.0</ele>
<time>2026-03-27T01:31:54Z</time>
<speed>5.6</speed>
</trkpt>
<trkpt lat="35.960044" lon="139.489095">
<ele>9.0</ele>
<time>2026-03-27T01:31:57Z</time>
<speed>5.8</speed>
</trkpt>
<trkpt lat="35.960053" lon="139.489223">
<ele>8.2</ele>
<time>2026-03-27T01:31:59Z</time>
<speed>6.3</speed>
</trkpt>
<trkpt lat="35.960073" lon="139.489360">
<ele>8.2</ele>
<time>2026-03-27T01:32:01Z</time>
<speed>5.8</speed>
</trkpt>
<trkpt lat="35.960188" lon="139.489858">
<ele>8.2</ele>
<time>2026-03-27T01:32:09Z</time>
<speed>6.6</speed>
</trkpt>
<trkpt lat="35.960375" lon="139.490318">
<ele>8.2</ele>
<time>2026-03-27T01:32:16Z</time>
<speed>6.4</speed>
</trkpt>
<trkpt lat="35.960559" lon="139.490758">
<ele>8.2</ele>
<time>2026-03-27T01:32:23Z</time>
<speed>6.3</speed>
</trkpt>
<trkpt lat="35.960768" lon="139.491257">
<ele>8.2</ele>
<time>2026-03-27T01:32:31Z</time>
<speed>6.3</speed>
</trkpt>
<trkpt lat="35.961024" lon="139.491876">
<ele>8.2</ele>
<time>2026-03-27T01:32:41Z</time>
<speed>6.2</speed>
</trkpt>
<trkpt lat="35.961277" lon="139.492493">
<ele>8.0</ele>
<time>2026-03-27T01:32:51Z</time>
<speed>6.4</speed>
</trkpt>
<trkpt lat="35.961302" lon="139.492557">
<ele>8.0</ele>
<time>2026-03-27T01:32:52Z</time>
<speed>6.6</speed>
</trkpt>
<trkpt lat="35.961323" lon="139.492625">
<ele>8.0</ele>
<time>2026-03-27T01:32:53Z</time>
<speed>6.2</speed>
</trkpt>
<trkpt lat="35.961406" lon="139.492952">
<ele>8.0</ele>
<time>2026-03-27T01:32:58Z</time>
<speed>6.0</speed>
</trkpt>
<trkpt lat="35.961420" lon="139.493016">
<ele>8.0</ele>
<time>2026-03-27T01:32:59Z</time>
<speed>5.9</speed>
</trkpt>
<trkpt lat="35.961435" lon="139.493145">
<ele>8.0</ele>
<time>2026-03-27T01:33:01Z</time>
<speed>6.0</speed>
</trkpt>
<trkpt lat="35.961458" lon="139.493411">
<ele>8.0</ele>
<time>2026-03-27T01:33:05Z</time>
<speed>6.3</speed>
</trkpt>
<trkpt lat="35.961439" lon="139.493827">
<ele>8.0</ele>
<time>2026-03-27T01:33:11Z</time>
<speed>6.5</speed>
</trkpt>
<trkpt lat="35.961322" lon="139.494458">
<ele>8.2</ele>
<time>2026-03-27T01:33:20Z</time>
<speed>6.3</speed>
</trkpt>
<trkpt lat="35.961217" lon="139.495007">
<ele>8.2</ele>
<time>2026-03-27T01:33:28Z</time>
<speed>6.2</speed>
</trkpt>
<trkpt lat="35.961111" lon="139.495611">
<ele>8.2</ele>
<time>2026-03-27T01:33:37Z</time>
<speed>6.4</speed>
</trkpt>
<trkpt lat="35.960984" lon="139.496305">
<ele>8.2</ele>
<time>2026-03-27T01:33:47Z</time>
<speed>6.6</speed>
</trkpt>
<trkpt lat="35.960860" lon="139.497021">
<ele>8.2</ele>
<time>2026-03-27T01:33:57Z</time>
<speed>6.7</speed>
</trkpt>
<trkpt lat="35.960750" lon="139.497675">
<ele>8.0</ele>
<time>2026-03-27T01:34:06Z</time>
<speed>6.3</speed>
</trkpt>
<trkpt lat="35.960720" lon="139.497882">
<ele>8.0</ele>
<time>2026-03-27T01:34:09Z</time>
<speed>5.6</speed>
</trkpt>
<trkpt lat="35.960650" lon="139.498310">
<ele>8.0</ele>
<time>2026-03-27T01:34:16Z</time>
<speed>5.4</speed>
</trkpt>
<trkpt lat="35.960636" lon="139.498367">
<ele>8.0</ele>
<time>2026-03-27T01:34:17Z</time>
<speed>5.6</speed>
</trkpt>
<trkpt lat="35.960604" lon="139.498550">
<ele>8.0</ele>
<time>2026-03-27T01:34:20Z</time>
<speed>6.3</speed>
</trkpt>
<trkpt lat="35.960517" lon="139.499027">
<ele>8.0</ele>
<time>2026-03-27T01:34:27Z</time>
<speed>6.4</speed>
</trkpt>
<trkpt lat="35.960473" lon="139.499307">
<ele>8.0</ele>
<time>2026-03-27T01:34:31Z</time>
<speed>6.5</speed>
</trkpt>
<trkpt lat="35.960406" lon="139.499659">
<ele>8.0</ele>
<time>2026-03-27T01:34:36Z</time>
<speed>6.6</speed>
</trkpt>
<trkpt lat="35.960291" lon="139.500301">
<ele>8.0</ele>
<time>2026-03-27T01:34:45Z</time>
<speed>6.3</speed>
</trkpt>
<trkpt lat="35.960183" lon="139.500846">
<ele>8.0</ele>
<time>2026-03-27T01:34:53Z</time>
<speed>6.1</speed>
</trkpt>
<trkpt lat="35.960129" lon="139.501178">
<ele>8.0</ele>
<time>2026-03-27T01:34:58Z</time>
<speed>6.4</speed>
</trkpt>
<trkpt lat="35.960023" lon="139.501804">
<ele>8.0</ele>
<time>2026-03-27T01:35:07Z</time>
<speed>6.3</speed>
</trkpt>
<trkpt lat="35.960012" lon="139.502156">
<ele>7.8</ele>
<time>2026-03-27T01:35:12Z</time>
<speed>5.9</speed>
</trkpt>
<trkpt lat="35.960013" lon="139.502221">
<ele>7.8</ele>
<time>2026-03-27T01:35:13Z</time>
<speed>5.4</speed>
</trkpt>
<trkpt lat="35.959996" lon="139.502399">
<ele>7.8</ele>
<time>2026-03-27T01:35:16Z</time>
<speed>5.8</speed>
</trkpt>
<trkpt lat="35.959941" lon="139.502847">
<ele>8.0</ele>
<time>2026-03-27T01:35:23Z</time>
<speed>6.2</speed>
</trkpt>
<trkpt lat="35.959932" lon="139.502915">
<ele>8.0</ele>
<time>2026-03-27T01:35:24Z</time>
<speed>6.3</speed>
</trkpt>
<trkpt lat="35.959850" lon="139.503538">
<ele>8.2</ele>
<time>2026-03-27T01:35:33Z</time>
<speed>6.2</speed>
</trkpt>
<trkpt lat="35.959789" lon="139.504015">
<ele>8.2</ele>
<time>2026-03-27T01:35:40Z</time>
<speed>6.0</speed>
</trkpt>
<trkpt lat="35.959769" lon="139.504145">
<ele>8.2</ele>
<time>2026-03-27T01:35:42Z</time>
<speed>6.2</speed>
</trkpt>
<trkpt lat="35.959761" lon="139.504350">
<ele>8.0</ele>
<time>2026-03-27T01:35:45Z</time>
<speed>6.4</speed>
</trkpt>
<trkpt lat="35.959731" lon="139.504990">
<ele>7.8</ele>
<time>2026-03-27T01:35:54Z</time>
<speed>6.5</speed>
</trkpt>
<trkpt lat="35.959640" lon="139.505484">
<ele>7.8</ele>
<time>2026-03-27T01:36:01Z</time>
<speed>6.6</speed>
</trkpt>
<trkpt lat="35.959478" lon="139.506190">
<ele>7.8</ele>
<time>2026-03-27T01:36:11Z</time>
<speed>6.6</speed>
</trkpt>
<trkpt lat="35.959428" lon="139.506324">
<ele>7.6</ele>
<time>2026-03-27T01:36:13Z</time>
<speed>6.3</speed>
</trkpt>
<trkpt lat="35.959341" lon="139.506505">
<ele>7.6</ele>
<time>2026-03-27T01:36:16Z</time>
<speed>6.3</speed>
</trkpt>
<trkpt lat="35.959231" lon="139.506751">
<ele>7.6</ele>
<time>2026-03-27T01:36:20Z</time>
<speed>6.4</speed>
</trkpt>
<trkpt lat="35.959195" lon="139.506886">
<ele>7.6</ele>
<time>2026-03-27T01:36:22Z</time>
<speed>6.4</speed>
</trkpt>
<trkpt lat="35.959071" lon="139.507432">
<ele>7.2</ele>
<time>2026-03-27T01:36:30Z</time>
<speed>6.4</speed>
</trkpt>
<trkpt lat="35.959055" lon="139.507500">
<ele>7.2</ele>
<time>2026-03-27T01:36:31Z</time>
<speed>6.5</speed>
</trkpt>
<trkpt lat="35.958916" lon="139.508131">
<ele>7.2</ele>
<time>2026-03-27T01:36:40Z</time>
<speed>6.4</speed>
</trkpt>
<trkpt lat="35.958912" lon="139.508202">
<ele>7.2</ele>
<time>2026-03-27T01:36:41Z</time>
<speed>6.3</speed>
</trkpt>
<trkpt lat="35.958929" lon="139.508695">
<ele>7.0</ele>
<time>2026-03-27T01:36:48Z</time>
<speed>6.3</speed>
</trkpt>
<trkpt lat="35.958923" lon="139.508765">
<ele>7.0</ele>
<time>2026-03-27T01:36:49Z</time>
<speed>6.3</speed>
</trkpt>
<trkpt lat="35.958879" lon="139.509041">
<ele>7.4</ele>
<time>2026-03-27T01:36:53Z</time>
<speed>5.9</speed>
</trkpt>
<trkpt lat="35.958795" lon="139.509488">
<ele>7.8</ele>
<time>2026-03-27T01:37:00Z</time>
<speed>5.6</speed>
</trkpt>
<trkpt lat="35.958736" lon="139.509977">
<ele>7.8</ele>
<time>2026-03-27T01:37:08Z</time>
<speed>5.6</speed>
</trkpt>
<trkpt lat="35.958685" lon="139.510284">
<ele>7.6</ele>
<time>2026-03-27T01:37:13Z</time>
<speed>5.6</speed>
</trkpt>
<trkpt lat="35.958653" lon="139.510401">
<ele>7.6</ele>
<time>2026-03-27T01:37:15Z</time>
<speed>5.2</speed>
</trkpt>
<trkpt lat="35.958638" lon="139.510516">
<ele>7.6</ele>
<time>2026-03-27T01:37:17Z</time>
<speed>5.3</speed>
</trkpt>
<trkpt lat="35.958635" lon="139.510634">
<ele>7.6</ele>
<time>2026-03-27T01:37:19Z</time>
<speed>5.4</speed>
</trkpt>
<trkpt lat="35.958628" lon="139.510693">
<ele>7.6</ele>
<time>2026-03-27T01:37:20Z</time>
<speed>5.6</speed>
</trkpt>
<trkpt lat="35.958533" lon="139.511309">
<ele>7.6</ele>
<time>2026-03-27T01:37:30Z</time>
<speed>6.0</speed>
</trkpt>
<trkpt lat="35.958436" lon="139.511898">
<ele>7.6</ele>
<time>2026-03-27T01:37:39Z</time>
<speed>6.2</speed>
</trkpt>
<trkpt lat="35.958316" lon="139.512497">
<ele>7.8</ele>
<time>2026-03-27T01:37:48Z</time>
<speed>6.3</speed>
</trkpt>
<trkpt lat="35.958191" lon="139.513109">
<ele>7.8</ele>
<time>2026-03-27T01:37:57Z</time>
<speed>6.5</speed>
</trkpt>
<trkpt lat="35.958051" lon="139.513815">
<ele>8.0</ele>
<time>2026-03-27T01:38:07Z</time>
<speed>6.4</speed>
</trkpt>
<trkpt lat="35.957895" lon="139.514274">
<ele>7.8</ele>
<time>2026-03-27T01:38:14Z</time>
<speed>6.2</speed>
</trkpt>
<trkpt lat="35.957690" lon="139.514684">
<ele>7.8</ele>
<time>2026-03-27T01:38:21Z</time>
<speed>5.7</speed>
</trkpt>
<trkpt lat="35.957455" lon="139.515020">
<ele>7.8</ele>
<time>2026-03-27T01:38:28Z</time>
<speed>5.9</speed>
</trkpt>
<trkpt lat="35.957274" lon="139.515262">
<ele>7.8</ele>
<time>2026-03-27T01:38:33Z</time>
<speed>5.6</speed>
</trkpt>
<trkpt lat="35.957247" lon="139.515315">
<ele>7.8</ele>
<time>2026-03-27T01:38:34Z</time>
<speed>5.6</speed>
</trkpt>
<trkpt lat="35.957214" lon="139.515362">
<ele>7.8</ele>
<time>2026-03-27T01:38:35Z</time>
<speed>5.9</speed>
</trkpt>
<trkpt lat="35.956809" lon="139.515883">
<ele>7.8</ele>
<time>2026-03-27T01:38:46Z</time>
<speed>6.4</speed>
</trkpt>
<trkpt lat="35.956530" lon="139.516237">
<ele>8.0</ele>
<time>2026-03-27T01:38:53Z</time>
<speed>6.4</speed>
</trkpt>
<trkpt lat="35.956140" lon="139.516754">
<ele>8.0</ele>
<time>2026-03-27T01:39:03Z</time>
<speed>6.3</speed>
</trkpt>
<trkpt lat="35.956102" lon="139.516806">
<ele>8.0</ele>
<time>2026-03-27T01:39:04Z</time>
<speed>6.4</speed>
</trkpt>
<trkpt lat="35.955880" lon="139.517224">
<ele>8.0</ele>
<time>2026-03-27T01:39:11Z</time>
<speed>6.0</speed>
</trkpt>
<trkpt lat="35.955690" lon="139.517705">
<ele>8.2</ele>
<time>2026-03-27T01:39:19Z</time>
<speed>6.4</speed>
</trkpt>
<trkpt lat="35.955477" lon="139.518213">
<ele>8.0</ele>
<time>2026-03-27T01:39:27Z</time>
<speed>6.7</speed>
</trkpt>
<trkpt lat="35.955250" lon="139.518738">
<ele>7.4</ele>
<time>2026-03-27T01:39:35Z</time>
<speed>6.2</speed>
</trkpt>
<trkpt lat="35.955031" lon="139.519373">
<ele>7.0</ele>
<time>2026-03-27T01:39:45Z</time>
<speed>6.5</speed>
</trkpt>
<trkpt lat="35.954815" lon="139.519961">
<ele>7.4</ele>
<time>2026-03-27T01:39:54Z</time>
<speed>6.2</speed>
</trkpt>
<trkpt lat="35.954644" lon="139.520466">
<ele>7.6</ele>
<time>2026-03-27T01:40:02Z</time>
<speed>5.9</speed>
</trkpt>
<trkpt lat="35.954463" lon="139.520939">
<ele>8.4</ele>
<time>2026-03-27T01:40:10Z</time>
<speed>6.3</speed>
</trkpt>
<trkpt lat="35.954269" lon="139.521441">
<ele>8.4</ele>
<time>2026-03-27T01:40:18Z</time>
<speed>6.5</speed>
</trkpt>
<trkpt lat="35.954068" lon="139.521961">
<ele>8.6</ele>
<time>2026-03-27T01:40:26Z</time>
<speed>6.0</speed>
</trkpt>
<trkpt lat="35.953956" lon="139.522262">
<ele>8.4</ele>
<time>2026-03-27T01:40:31Z</time>
<speed>6.0</speed>
</trkpt>
<trkpt lat="35.953907" lon="139.522381">
<ele>8.4</ele>
<time>2026-03-27T01:40:33Z</time>
<speed>6.3</speed>
</trkpt>
<trkpt lat="35.953664" lon="139.523009">
<ele>8.2</ele>
<time>2026-03-27T01:40:43Z</time>
<speed>6.6</speed>
</trkpt>
<trkpt lat="35.953637" lon="139.523074">
<ele>8.2</ele>
<time>2026-03-27T01:40:44Z</time>
<speed>6.5</speed>
</trkpt>
<trkpt lat="35.953388" lon="139.523728">
<ele>8.0</ele>
<time>2026-03-27T01:40:54Z</time>
<speed>6.6</speed>
</trkpt>
<trkpt lat="35.953161" lon="139.524325">
<ele>8.0</ele>
<time>2026-03-27T01:41:03Z</time>
<speed>6.3</speed>
</trkpt>
<trkpt lat="35.952937" lon="139.524886">
<ele>8.0</ele>
<time>2026-03-27T01:41:12Z</time>
<speed>6.3</speed>
</trkpt>
<trkpt lat="35.952685" lon="139.525350">
<ele>8.0</ele>
<time>2026-03-27T01:41:20Z</time>
<speed>6.8</speed>
</trkpt>
<trkpt lat="35.952448" lon="139.525795">
<ele>8.0</ele>
<time>2026-03-27T01:41:27Z</time>
<speed>5.9</speed>
</trkpt>
<trkpt lat="35.952339" lon="139.526164">
<ele>8.0</ele>
<time>2026-03-27T01:41:33Z</time>
<speed>5.7</speed>
</trkpt>
<trkpt lat="35.952313" lon="139.526608">
<ele>8.0</ele>
<time>2026-03-27T01:41:40Z</time>
<speed>5.8</speed>
</trkpt>
<trkpt lat="35.952329" lon="139.526735">
<ele>8.2</ele>
<time>2026-03-27T01:41:42Z</time>
<speed>6.2</speed>
</trkpt>
<trkpt lat="35.952383" lon="139.526855">
<ele>8.2</ele>
<time>2026-03-27T01:41:44Z</time>
<speed>6.6</speed>
</trkpt>
<trkpt lat="35.952626" lon="139.527359">
<ele>8.2</ele>
<time>2026-03-27T01:41:52Z</time>
<speed>6.4</speed>
</trkpt>
<trkpt lat="35.952655" lon="139.527420">
<ele>8.2</ele>
<time>2026-03-27T01:41:53Z</time>
<speed>6.1</speed>
</trkpt>
<trkpt lat="35.952787" lon="139.527714">
<ele>7.4</ele>
<time>2026-03-27T01:41:58Z</time>
<speed>6.4</speed>
</trkpt>
<trkpt lat="35.952976" lon="139.528229">
<ele>7.0</ele>
<time>2026-03-27T01:42:06Z</time>
<speed>6.5</speed>
</trkpt>
<trkpt lat="35.953036" lon="139.528656">
<ele>7.0</ele>
<time>2026-03-27T01:42:12Z</time>
<speed>6.4</speed>
</trkpt>
<trkpt lat="35.953078" lon="139.529221">
<ele>7.2</ele>
<time>2026-03-27T01:42:20Z</time>
<speed>6.4</speed>
</trkpt>
<trkpt lat="35.953129" lon="139.529862">
<ele>7.2</ele>
<time>2026-03-27T01:42:29Z</time>
<speed>6.2</speed>
</trkpt>
<trkpt lat="35.953134" lon="139.529931">
<ele>7.2</ele>
<time>2026-03-27T01:42:30Z</time>
<speed>6.1</speed>
</trkpt>
<trkpt lat="35.953188" lon="139.530541">
<ele>7.2</ele>
<time>2026-03-27T01:42:39Z</time>
<speed>5.0</speed>
</trkpt>
<trkpt lat="35.953213" lon="139.530929">
<ele>7.2</ele>
<time>2026-03-27T01:42:46Z</time>
<speed>4.6</speed>
</trkpt>
<trkpt lat="35.953222" lon="139.530979">
<ele>7.2</ele>
<time>2026-03-27T01:42:47Z</time>
<speed>4.2</speed>
</trkpt>
<trkpt lat="35.953235" lon="139.531164">
<ele>7.4</ele>
<time>2026-03-27T01:42:51Z</time>
<speed>4.4</speed>
</trkpt>
<trkpt lat="35.953137" lon="139.531320">
<ele>7.6</ele>
<time>2026-03-27T01:42:55Z</time>
<speed>5.2</speed>
</trkpt>
<trkpt lat="35.953099" lon="139.531353">
<ele>7.6</ele>
<time>2026-03-27T01:42:56Z</time>
<speed>5.6</speed>
</trkpt>
<trkpt lat="35.953056" lon="139.531385">
<ele>7.6</ele>
<time>2026-03-27T01:42:57Z</time>
<speed>5.8</speed>
</trkpt>
<trkpt lat="35.952909" lon="139.531453">
<ele>8.0</ele>
<time>2026-03-27T01:43:00Z</time>
<speed>6.1</speed>
</trkpt>
<trkpt lat="35.952497" lon="139.531652">
<ele>8.4</ele>
<time>2026-03-27T01:43:08Z</time>
<speed>6.5</speed>
</trkpt>
<trkpt lat="35.952012" lon="139.531913">
<ele>8.4</ele>
<time>2026-03-27T01:43:17Z</time>
<speed>6.7</speed>
</trkpt>
<trkpt lat="35.951522" lon="139.532198">
<ele>8.4</ele>
<time>2026-03-27T01:43:26Z</time>
<speed>6.8</speed>
</trkpt>
<trkpt lat="35.951085" lon="139.532460">
<ele>8.4</ele>
<time>2026-03-27T01:43:34Z</time>
<speed>6.9</speed>
</trkpt>
<trkpt lat="35.950636" lon="139.532719">
<ele>8.4</ele>
<time>2026-03-27T01:43:42Z</time>
<speed>6.9</speed>
</trkpt>
<trkpt lat="35.950243" lon="139.532951">
<ele>8.6</ele>
<time>2026-03-27T01:43:49Z</time>
<speed>7.0</speed>
</trkpt>
<trkpt lat="35.949726" lon="139.533242">
<ele>8.6</ele>
<time>2026-03-27T01:43:58Z</time>
<speed>7.2</speed>
</trkpt>
<trkpt lat="35.949491" lon="139.533373">
<ele>8.6</ele>
<time>2026-03-27T01:44:02Z</time>
<speed>7.1</speed>
</trkpt>
<trkpt lat="35.949022" lon="139.533632">
<ele>8.6</ele>
<time>2026-03-27T01:44:10Z</time>
<speed>7.4</speed>
</trkpt>
<trkpt lat="35.948476" lon="139.533936">
<ele>8.4</ele>
<time>2026-03-27T01:44:19Z</time>
<speed>7.2</speed>
</trkpt>
<trkpt lat="35.948417" lon="139.533969">
<ele>8.4</ele>
<time>2026-03-27T01:44:20Z</time>
<speed>7.3</speed>
</trkpt>
<trkpt lat="35.947873" lon="139.534259">
<ele>8.2</ele>
<time>2026-03-27T01:44:29Z</time>
<speed>7.3</speed>
</trkpt>
<trkpt lat="35.947812" lon="139.534289">
<ele>8.2</ele>
<time>2026-03-27T01:44:30Z</time>
<speed>7.4</speed>
</trkpt>
<trkpt lat="35.947263" lon="139.534579">
<ele>8.2</ele>
<time>2026-03-27T01:44:39Z</time>
<speed>7.3</speed>
</trkpt>
<trkpt lat="35.947202" lon="139.534610">
<ele>8.2</ele>
<time>2026-03-27T01:44:40Z</time>
<speed>7.5</speed>
</trkpt>
<trkpt lat="35.946646" lon="139.534900">
<ele>8.2</ele>
<time>2026-03-27T01:44:49Z</time>
<speed>7.7</speed>
</trkpt>
<trkpt lat="35.946131" lon="139.535158">
<ele>8.2</ele>
<time>2026-03-27T01:44:57Z</time>
<speed>7.7</speed>
</trkpt>
<trkpt lat="35.945938" lon="139.535254">
<ele>8.2</ele>
<time>2026-03-27T01:45:00Z</time>
<speed>7.7</speed>
</trkpt>
<trkpt lat="35.945420" lon="139.535506">
<ele>8.0</ele>
<time>2026-03-27T01:45:08Z</time>
<speed>7.7</speed>
</trkpt>
<trkpt lat="35.945291" lon="139.535566">
<ele>8.0</ele>
<time>2026-03-27T01:45:10Z</time>
<speed>7.6</speed>
</trkpt>
<trkpt lat="35.944772" lon="139.535792">
<ele>8.0</ele>
<time>2026-03-27T01:45:18Z</time>
<speed>7.5</speed>
</trkpt>
<trkpt lat="35.944584" lon="139.535880">
<ele>8.0</ele>
<time>2026-03-27T01:45:21Z</time>
<speed>7.3</speed>
</trkpt>
<trkpt lat="35.944025" lon="139.536112">
<ele>7.8</ele>
<time>2026-03-27T01:45:30Z</time>
<speed>6.7</speed>
</trkpt>
<trkpt lat="35.943561" lon="139.536288">
<ele>7.8</ele>
<time>2026-03-27T01:45:38Z</time>
<speed>6.6</speed>
</trkpt>
<trkpt lat="35.942987" lon="139.536495">
<ele>7.6</ele>
<time>2026-03-27T01:45:48Z</time>
<speed>6.6</speed>
</trkpt>
<trkpt lat="35.942711" lon="139.536633">
<ele>7.6</ele>
<time>2026-03-27T01:45:53Z</time>
<speed>5.8</speed>
</trkpt>
<trkpt lat="35.942666" lon="139.536666">
<ele>7.6</ele>
<time>2026-03-27T01:45:54Z</time>
<speed>5.3</speed>
</trkpt>
<trkpt lat="35.942621" lon="139.536684">
<ele>7.6</ele>
<time>2026-03-27T01:45:55Z</time>
<speed>4.9</speed>
</trkpt>
<trkpt lat="35.942540" lon="139.536727">
<ele>7.6</ele>
<time>2026-03-27T01:45:57Z</time>
<speed>3.5</speed>
</trkpt>
<trkpt lat="35.942463" lon="139.536793">
<ele>7.6</ele>
<time>2026-03-27T01:46:00Z</time>
<speed>2.2</speed>
</trkpt>
<trkpt lat="35.942366" lon="139.536812">
<ele>8.2</ele>
<time>2026-03-27T01:46:05Z</time>
<speed>1.9</speed>
</trkpt>
<trkpt lat="35.942339" lon="139.536837">
<ele>8.8</ele>
<time>2026-03-27T01:46:07Z</time>
<speed>2.3</speed>
</trkpt>
<trkpt lat="35.942319" lon="139.536844">
<ele>9.0</ele>
<time>2026-03-27T01:46:08Z</time>
<speed>2.9</speed>
</trkpt>
<trkpt lat="35.942293" lon="139.536848">
<ele>9.2</ele>
<time>2026-03-27T01:46:09Z</time>
<speed>2.3</speed>
</trkpt>
<trkpt lat="35.942215" lon="139.536876">
<ele>9.6</ele>
<time>2026-03-27T01:46:13Z</time>
<speed>0.1</speed>
</trkpt>
<trkpt lat="35.942184" lon="139.536836">
<ele>10.4</ele>
<time>2026-03-27T01:47:25Z</time>
<speed>1.8</speed>
</trkpt>
<trkpt lat="35.942177" lon="139.536818">
<ele>10.4</ele>
<time>2026-03-27T01:47:26Z</time>
<speed>1.5</speed>
</trkpt>
<trkpt lat="35.942136" lon="139.536778">
<ele>10.4</ele>
<time>2026-03-27T01:47:30Z</time>
<speed>0.6</speed>
</trkpt>
<trkpt lat="35.942120" lon="139.536777">
<ele>10.4</ele>
<time>2026-03-27T01:47:33Z</time>
<speed>0.6</speed>
</trkpt>
</trkseg>
</trk>
</gpx>
